
Distance (Route):
Temperature : -49.8°C
Humidity : 3.1%
Pressure : 0hPa| Receiver | Frames | First received | Last received |
|---|---|---|---|
| DM0DOS-11 | 196 | 2026-08-31 06:22:43 | 2026-08-31 07:08:30 |
| DJ2DS-15 | 81 | 2026-08-31 06:30:09 | 2026-08-31 07:05:36 |
| BIOWL1-15 | 73 | 2026-08-31 06:34:36 | 2026-08-31 07:04:05 |
| DB0UT-7 | 21 | 2026-08-31 06:35:38 | 2026-08-31 07:01:25 |
| BIOWL9-15 | 11 | 2026-08-31 06:42:48 | 2026-08-31 07:04:00 |
| Receiver | Date | Latitude | Longitude | Direction | Speed | Altitude | Climb | Temperature | Humidity | Pressure | Voltage | Killtimer | Uptime | BKT | XDATA |
|---|---|---|---|---|---|---|---|---|---|---|---|---|---|---|---|
| DM0DOS-11 | 2026-08-31 07:08:30 | 52.91946 | -0.64787 | 68° | 55km/h | 18898m | -9.2m/s | -49.8°C | 3.1% | 0hPa | 2.5V | 08:18:11 | 02:19:17 | 00:00:00 | |
| DM0DOS-11 | 2026-08-31 07:08:23 | 52.91889 | -0.64906 | 37° | 13km/h | 18996m | -9.9m/s | -49.8°C | 3.1% | 0hPa | 2.5V | 08:18:21 | 02:19:07 | 00:00:00 | |
| DM0DOS-11 | 2026-08-31 07:08:10 | 52.91909 | -0.64982 | 107° | 40km/h | 19094m | -10.2m/s | -50.1°C | 3.2% | 0hPa | 2.5V | 08:18:31 | 02:18:57 | 00:00:00 | |
| DM0DOS-11 | 2026-08-31 07:08:03 | 52.91880 | -0.65144 | 39° | 33km/h | 19193m | -10.1m/s | -50.2°C | 3.2% | 0hPa | 2.5V | 08:18:41 | 02:18:47 | 00:00:00 | |
| DM0DOS-11 | 2026-08-31 07:07:53 | 52.91860 | -0.65173 | 136° | 16km/h | 19294m | -9.8m/s | -50.1°C | 3.2% | 0hPa | 2.5V | 08:18:51 | 02:18:37 | 00:00:00 | |
| DM0DOS-11 | 2026-08-31 07:07:40 | 52.91857 | -0.65286 | 50° | 31km/h | 19392m | -10.4m/s | -49.5°C | 3% | 0hPa | 2.6V | 08:19:01 | 02:18:27 | 00:00:00 | |
| DM0DOS-11 | 2026-08-31 07:07:33 | 52.91800 | -0.65295 | 302° | 15km/h | 19494m | -9.7m/s | -49.9°C | 3.1% | 0hPa | 2.5V | 08:19:11 | 02:18:17 | 00:00:00 | |
| DM0DOS-11 | 2026-08-31 07:07:20 | 52.91817 | -0.65309 | 106° | 27km/h | 19594m | -9.9m/s | -50.5°C | 3.2% | 0hPa | 2.5V | 08:19:21 | 02:18:07 | 00:00:00 | |
| DM0DOS-11 | 2026-08-31 07:07:13 | 52.91782 | -0.65436 | 28° | 33km/h | 19695m | -10.3m/s | -50.7°C | 3.2% | 0hPa | 2.6V | 08:19:31 | 02:17:57 | 00:00:00 | |
| DM0DOS-11 | 2026-08-31 07:05:55 | 52.91535 | -0.65857 | 343° | 26km/h | 20485m | -11.2m/s | -51.8°C | 3.6% | 0hPa | 2.6V | 08:20:47 | 02:16:41 | 00:00:00 | |
| DM0DOS-11 | 2026-08-31 07:05:44 | 52.91528 | -0.65887 | 100° | 29km/h | 20593m | -10.4m/s | -50.9°C | 3.3% | 0hPa | 2.6V | 08:20:57 | 02:16:31 | 00:00:00 | |
| DM0DOS-11 | 2026-08-31 07:05:37 | 52.91488 | -0.66012 | 24° | 29km/h | 20699m | -11.4m/s | -51°C | 3.4% | 0hPa | 2.6V | 08:21:07 | 02:16:21 | 00:00:00 | |
| DJ2DS-15 | 2026-08-31 07:05:36 | 52.91509 | -0.65987 | 47° | 38km/h | 20667m | -10.6m/s | -50.9°C | 0.8% | -1.0hPa | 2.6V | 00:00:00 | 00:00:00 | 00:00:00 | |
| DM0DOS-11 | 2026-08-31 07:05:24 | 52.91473 | -0.65998 | 164° | 20km/h | 20807m | -10.8m/s | -50.8°C | 3.3% | 0hPa | 2.6V | 08:21:17 | 02:16:11 | 00:00:00 | |
| DM0DOS-11 | 2026-08-31 07:05:17 | 52.91474 | -0.66093 | 37° | 33km/h | 20914m | -11.1m/s | -50.9°C | 3.3% | 0hPa | 2.6V | 08:21:27 | 02:16:01 | 00:00:00 | |
| DM0DOS-11 | 2026-08-31 07:05:04 | 52.91406 | -0.66062 | 290° | 31km/h | 21027m | -10.7m/s | -51°C | 3.3% | 0hPa | 2.6V | 08:21:37 | 02:15:51 | 00:00:00 | |
| DJ2DS-15 | 2026-08-31 07:05:00 | 52.91403 | -0.66039 | 267° | 22km/h | 21047m | -10.1m/s | -51.1°C | 0.8% | -1.0hPa | 2.6V | 00:00:00 | 00:00:00 | 00:00:00 | |
| DM0DOS-11 | 2026-08-31 07:04:57 | 52.91405 | -0.66030 | 56° | 20km/h | 21135m | -11.5m/s | -51.1°C | 3.3% | 0hPa | 2.6V | 08:21:47 | 02:15:41 | 00:00:00 | |
| DM0DOS-11 | 2026-08-31 07:04:44 | 52.91310 | -0.66085 | 352° | 51km/h | 21245m | -10.9m/s | -51.4°C | 3.4% | 0hPa | 2.6V | 08:21:57 | 02:15:31 | 00:00:00 | |
| DM0DOS-11 | 2026-08-31 07:04:34 | 52.91248 | -0.66040 | 75° | 9km/h | 21359m | -11.8m/s | -51.4°C | 3.4% | 0hPa | 2.6V | 08:22:07 | 02:15:21 | 00:00:00 | |
| DM0DOS-11 | 2026-08-31 07:04:24 | 52.91204 | -0.66167 | 33° | 49km/h | 21472m | -11.6m/s | -51.6°C | 3.5% | 0hPa | 2.6V | 08:22:17 | 02:15:11 | 00:00:00 | |
| DJ2DS-15 | 2026-08-31 07:04:24 | 52.91214 | -0.66154 | 41° | 49km/h | 21461m | -11.2m/s | -51.5°C | 0.9% | -1.0hPa | 2.6V | 00:00:00 | 00:00:00 | 00:00:00 | |
| DM0DOS-11 | 2026-08-31 07:04:17 | 52.91121 | -0.66165 | 301° | 20km/h | 21589m | -11.4m/s | -51.5°C | 3.4% | 0hPa | 2.6V | 08:22:27 | 02:15:01 | 00:00:00 | |
| BIOWL1-15 | 2026-08-31 07:04:05 | 52.91131 | -0.66169 | 108° | 26km/h | 21671m | -12.2m/s | -51.3°C | 0.1% | 0hPa | 2.6V | 08:23:10 | 02:14:54 | 00:00:00 | |
| DM0DOS-11 | 2026-08-31 07:04:04 | 52.91132 | -0.66226 | 79° | 42km/h | 21718m | -12m/s | -51.5°C | 3.5% | 0hPa | 2.6V | 08:22:38 | 02:14:50 | 00:00:00 | |
| BIOWL9-15 | 2026-08-31 07:04:00 | 52.91129 | -0.66244 | 69° | 44km/h | 21730m | -11.5m/s | -51.6°C | 0.9% | -1.0hPa | 2.6V | 00:00:00 | 00:00:00 | 00:00:00 | |
| DJ2DS-15 | 2026-08-31 07:03:57 | 52.91111 | -0.66288 | 42° | 27km/h | 21764m | -11.2m/s | -51.7°C | 3.5% | 0hPa | 2.6V | 00:00:00 | 02:14:46 | 00:00:00 | |
| DM0DOS-11 | 2026-08-31 07:03:54 | 52.91073 | -0.66314 | 344° | 11km/h | 21837m | -12.7m/s | -51.9°C | 3.5% | 0hPa | 2.6V | 08:22:48 | 02:14:40 | 00:00:00 | |
| BIOWL1-15 | 2026-08-31 07:03:54 | 52.91088 | -0.66311 | 16° | 29km/h | 21799m | -12.2m/s | -51.9°C | 0.3% | 0hPa | 2.6V | 08:23:10 | 02:14:43 | 00:00:00 | |
| DJ2DS-15 | 2026-08-31 07:03:48 | 52.91075 | -0.66305 | 194° | 16km/h | 21886m | -12.5m/s | -51.9°C | 0.9% | -1.0hPa | 2.6V | 00:00:00 | 00:00:00 | 00:00:00 | |
| DM0DOS-11 | 2026-08-31 07:03:45 | 52.91119 | -0.66352 | 107° | 37km/h | 21967m | -12.4m/s | -51.7°C | 3.5% | 0hPa | 2.6V | 08:22:59 | 02:14:29 | 00:00:00 | |
| BIOWL1-15 | 2026-08-31 07:03:43 | 52.91102 | -0.66315 | 146° | 37km/h | 21932m | -11.1m/s | -51.8°C | 0.2% | 0hPa | 2.6V | 08:23:10 | 02:14:32 | 00:00:00 | |
| BIOWL1-15 | 2026-08-31 07:03:38 | 52.91082 | -0.66432 | 334° | 18km/h | 22089m | -13m/s | -51.4°C | 0.2% | 0hPa | 2.6V | 08:23:10 | 02:14:19 | 00:00:00 | |
| DJ2DS-15 | 2026-08-31 07:03:37 | 52.91120 | -0.66396 | 77° | 24km/h | 22005m | -12.3m/s | -51.6°C | 3.5% | 0hPa | 2.6V | 00:00:00 | 02:14:26 | 00:00:00 | |
| DM0DOS-11 | 2026-08-31 07:03:34 | 52.91082 | -0.66432 | 334° | 18km/h | 22089m | -13m/s | -51.4°C | 3.4% | 0hPa | 2.6V | 08:23:09 | 02:14:19 | 00:00:00 | |
| BIOWL9-15 | 2026-08-31 07:03:29 | 52.91079 | -0.66428 | 311° | 16km/h | 22102m | -12.4m/s | -51.5°C | 0.9% | -1.0hPa | 2.6V | 00:00:00 | 00:00:00 | 00:00:00 | |
| DM0DOS-11 | 2026-08-31 07:03:25 | 52.91108 | -0.66402 | 136° | 24km/h | 22207m | -12.6m/s | -51.4°C | 3.4% | 0hPa | 2.6V | 08:23:19 | 02:14:09 | 00:00:00 | |
| BIOWL1-15 | 2026-08-31 07:03:21 | 52.91103 | -0.66397 | 154° | 26km/h | 22195m | -12.2m/s | -51.4°C | 0.2% | 0hPa | 2.6V | 18:12:15 | 02:14:10 | 00:00:00 | |
| BIOWL1-15 | 2026-08-31 07:03:11 | 52.91078 | -0.66474 | 5° | 37km/h | 22320m | -12.7m/s | -51.8°C | 0.2% | 0hPa | 2.6V | 18:12:15 | 02:14:00 | 00:00:00 | |
| DM0DOS-11 | 2026-08-31 07:03:09 | 52.91039 | -0.66459 | 330° | 40km/h | 22370m | -12.3m/s | -52.2°C | 3.6% | 0hPa | 2.7V | 08:23:32 | 02:13:56 | 00:00:00 | |
| BIOWL1-15 | 2026-08-31 07:03:01 | 52.91018 | -0.66394 | 250° | 16km/h | 22444m | -12.8m/s | -52.2°C | 0.3% | 0hPa | 2.6V | 18:12:15 | 02:13:50 | 00:00:00 | |
| DM0DOS-11 | 2026-08-31 07:02:59 | 52.91027 | -0.66394 | 119° | 16km/h | 22494m | -13.1m/s | -52.1°C | 3.6% | 0hPa | 2.6V | 08:23:42 | 02:13:46 | 00:00:00 | |
| BIOWL1-15 | 2026-08-31 07:02:51 | 52.91014 | -0.66462 | 42° | 42km/h | 22572m | -12.8m/s | -51.8°C | 0.3% | 0hPa | 2.6V | 18:12:15 | 02:13:40 | 00:00:00 | |
| DM0DOS-11 | 2026-08-31 07:02:49 | 52.90974 | -0.66486 | 358° | 40km/h | 22620m | -12.3m/s | -51.8°C | 3.5% | 0hPa | 2.6V | 08:23:52 | 02:13:36 | 00:00:00 | |
| BIOWL1-15 | 2026-08-31 07:02:40 | 52.90940 | -0.66453 | 238° | 9km/h | 22709m | -13.8m/s | 0°C | 0% | 0hPa | 2.6V | 18:12:15 | 02:13:29 | 00:00:00 | |
| DJ2DS-15 | 2026-08-31 07:02:37 | 52.90949 | -0.66455 | 154° | 31km/h | 22750m | -13.1m/s | -51.8°C | 3.6% | 0hPa | 2.6V | 00:00:00 | 02:13:26 | 00:00:00 | |
| DJ2DS-15 | 2026-08-31 07:02:36 | 52.90958 | -0.66469 | 124° | 29km/h | 22775m | -12.5m/s | -51.9°C | 0.9% | -1.0hPa | 2.6V | 00:00:00 | 00:00:00 | 00:00:00 | |
| BIOWL9-15 | 2026-08-31 07:02:27 | 52.90947 | -0.66581 | 29° | 31km/h | 22876m | -13.3m/s | -51.6°C | 0.9% | -1.0hPa | 2.6V | 00:00:00 | 00:00:00 | 00:00:00 | |
| DM0DOS-11 | 2026-08-31 07:02:25 | 52.90914 | -0.66561 | 286° | 29km/h | 22955m | -13.8m/s | -51.5°C | 3.5% | 0hPa | 2.6V | 08:24:18 | 02:13:10 | 00:00:00 | |
| DJ2DS-15 | 2026-08-31 07:02:17 | 52.90921 | -0.66512 | 229° | 27km/h | 23009m | -12.9m/s | -51.5°C | 3.5% | 0hPa | 2.6V | 00:00:00 | 02:13:06 | 00:00:00 | |
| DJ2DS-15 | 2026-08-31 07:01:57 | 52.90893 | -0.66517 | 273° | 29km/h | 23264m | -13.1m/s | -51.9°C | 3.6% | 0hPa | 2.6V | 00:00:00 | 02:12:46 | 00:00:00 | |
| DJ2DS-15 | 2026-08-31 07:01:37 | 52.90863 | -0.66642 | 337° | 31km/h | 23535m | -13.4m/s | -51.7°C | 3.6% | 0hPa | 2.6V | 00:00:00 | 02:12:26 | 00:00:00 | |
| DM0DOS-11 | 2026-08-31 07:01:26 | 52.90873 | -0.66658 | 56° | 38km/h | 23752m | -14.5m/s | -51.3°C | 3.4% | 0hPa | 2.6V | 08:25:18 | 02:12:10 | 00:00:00 | |
| DB0UT-7 | 2026-08-31 07:01:25 | 52.90879 | -0.66604 | 108° | 33km/h | 23696m | -14.3m/s | -51.2°C | 3.4% | 0hPa | 2.6V | 00:00:00 | 00:00:00 | 00:00:00 | |
| DJ2DS-15 | 2026-08-31 07:01:17 | 52.90840 | -0.66701 | 16° | 35km/h | 23808m | -13.4m/s | -51.3°C | 3.4% | 0hPa | 2.6V | 00:00:00 | 02:12:06 | 00:00:00 | |
| DM0DOS-11 | 2026-08-31 07:01:15 | 52.90788 | -0.66682 | 304° | 27km/h | 23889m | -14.1m/s | -51.8°C | 3.5% | 0hPa | 2.6V | 08:25:28 | 02:12:00 | 00:00:00 | |
| DM0DOS-11 | 2026-08-31 07:01:03 | 52.90813 | -0.66671 | 116° | 35km/h | 24030m | -15m/s | -51.8°C | 3.4% | 0hPa | 2.7V | 08:25:38 | 02:11:50 | 00:00:00 | |
| DM0DOS-11 | 2026-08-31 07:00:56 | 52.90775 | -0.66775 | 343° | 29km/h | 24173m | -14.4m/s | -52°C | 3.5% | 0hPa | 2.7V | 08:25:48 | 02:11:40 | 00:00:00 | |
| DB0UT-7 | 2026-08-31 07:00:55 | 52.90805 | -0.66758 | 43° | 31km/h | 24116m | -15.1m/s | -51.8°C | 3.4% | 0hPa | 2.7V | 00:00:00 | 02:11:44 | 00:00:00 | |
| DM0DOS-11 | 2026-08-31 07:00:45 | 52.90797 | -0.66714 | 171° | 37km/h | 24318m | -15.7m/s | -52.7°C | 3.7% | 0hPa | 2.6V | 08:25:58 | 02:11:30 | 00:00:00 | |
| DJ2DS-15 | 2026-08-31 07:00:35 | 52.90824 | -0.66764 | 76° | 31km/h | 24409m | -15.9m/s | -52.7°C | 3.8% | 0hPa | 2.6V | 00:00:00 | 02:11:24 | 00:00:00 | |
| DM0DOS-11 | 2026-08-31 07:00:34 | 52.90802 | -0.66784 | 349° | 33km/h | 24469m | -15m/s | -52.8°C | 3.8% | 0hPa | 2.6V | 08:26:08 | 02:11:20 | 00:00:00 | |
| BIOWL1-15 | 2026-08-31 07:00:27 | 52.90774 | -0.66747 | 299° | 38km/h | 24529m | -15.6m/s | 0°C | 0% | 0hPa | 2.7V | 18:12:15 | 02:11:16 | 00:00:00 | |
| DM0DOS-11 | 2026-08-31 07:00:24 | 52.90781 | -0.66684 | 189° | 24km/h | 24620m | -15.8m/s | -52.5°C | 3.8% | 0hPa | 2.7V | 08:26:18 | 02:11:10 | 00:00:00 | |
| BIOWL1-15 | 2026-08-31 07:00:16 | 52.90816 | -0.66732 | 105° | 40km/h | 24711m | -15.8m/s | 0°C | 0% | 0hPa | 2.7V | 18:12:15 | 02:11:04 | 00:00:00 | |
| DJ2DS-15 | 2026-08-31 07:00:15 | 52.90816 | -0.66732 | 105° | 35km/h | 24711m | -15.8m/s | -51.8°C | 3.6% | 0hPa | 2.6V | 00:00:00 | 02:11:04 | 00:00:00 | |
| DM0DOS-11 | 2026-08-31 07:00:14 | 52.90808 | -0.66789 | 47° | 33km/h | 24771m | -15.5m/s | -52°C | 3.6% | 0hPa | 2.6V | 08:26:28 | 02:11:00 | 00:00:00 | |
| DJ2DS-15 | 2026-08-31 07:00:12 | 52.90809 | -0.66789 | 47° | 31km/h | 24771m | -15.5m/s | -52.0°C | 0.9% | -1.0hPa | 2.6V | 00:00:00 | 00:00:00 | 00:00:00 | |
| DM0DOS-11 | 2026-08-31 07:00:02 | 52.90757 | -0.66736 | 254° | 37km/h | 24924m | -15.4m/s | -51.7°C | 3.6% | 0hPa | 2.6V | 08:26:38 | 02:10:50 | 00:00:00 | |
| DM0DOS-11 | 2026-08-31 06:59:56 | 52.90807 | -0.66753 | 83° | 37km/h | 25080m | -16.5m/s | -51.4°C | 3.6% | 0hPa | 2.7V | 08:26:48 | 02:10:40 | 00:00:00 | |
| BIOWL9-15 | 2026-08-31 06:59:52 | 52.90804 | -0.66767 | 66° | 37km/h | 25096m | -14.7m/s | -51.3°C | -1.0% | -1.0hPa | 2.6V | 00:00:00 | 00:00:00 | 00:00:00 | |
| DM0DOS-11 | 2026-08-31 06:59:44 | 52.90747 | -0.66752 | 269° | 35km/h | 25237m | -16.6m/s | -50.8°C | 3.5% | 0hPa | 2.6V | 08:26:58 | 02:10:30 | 00:00:00 | |
| DJ2DS-15 | 2026-08-31 06:59:35 | 52.90781 | -0.66689 | 183° | 31km/h | 25329m | -15.2m/s | -50.7°C | 3.4% | 0hPa | 2.7V | 00:00:00 | 02:10:24 | 00:00:00 | |
| DM0DOS-11 | 2026-08-31 06:59:29 | 52.90795 | -0.66748 | 37° | 31km/h | 25440m | -16.1m/s | -50.3°C | 3.4% | 0hPa | 2.7V | 08:27:11 | 02:10:17 | 00:00:00 | |
| DM0DOS-11 | 2026-08-31 06:59:19 | 52.90740 | -0.66689 | 251° | 26km/h | 25593m | -16.7m/s | -49.8°C | 3.3% | 0hPa | 2.6V | 08:27:21 | 02:10:07 | 00:00:00 | |
| DJ2DS-15 | 2026-08-31 06:59:15 | 52.90750 | -0.66669 | 200° | 31km/h | 25641m | -15.5m/s | -49.5°C | 3.2% | 0hPa | 2.7V | 00:00:00 | 02:10:04 | 00:00:00 | |
| DM0DOS-11 | 2026-08-31 06:59:09 | 52.90764 | -0.66728 | 73° | 37km/h | 25752m | -17.2m/s | -49.4°C | 3.2% | 0hPa | 2.7V | 08:27:31 | 02:09:57 | 00:00:00 | |
| DJ2DS-15 | 2026-08-31 06:59:00 | 52.90699 | -0.66779 | 335° | 35km/h | 25896m | -16.3m/s | -49.4°C | 0.7% | -1.0hPa | 2.6V | 00:00:00 | 00:00:00 | 00:00:00 | |
| BIOWL9-15 | 2026-08-31 06:58:50 | 52.90711 | -0.66716 | 149° | 29km/h | 26089m | -16.7m/s | -49.5°C | -1.0% | -1.0hPa | 2.6V | 00:00:00 | 00:00:00 | 00:00:00 | |
| DM0DOS-11 | 2026-08-31 06:58:49 | 52.90705 | -0.66711 | 161° | 26km/h | 26073m | -16.6m/s | -49.6°C | 3.3% | 0hPa | 2.6V | 08:27:51 | 02:09:37 | 00:00:00 | |
| BIOWL1-15 | 2026-08-31 06:58:43 | 52.90727 | -0.66761 | 98° | 38km/h | 26153m | -17.1m/s | -49°C | 0.1% | 0hPa | 2.6V | 08:29:58 | 02:09:32 | 00:00:00 | |
| DM0DOS-11 | 2026-08-31 06:58:39 | 52.90713 | -0.66830 | 42° | 35km/h | 26236m | -16.8m/s | -48.9°C | 3.2% | 0hPa | 2.7V | 08:28:01 | 02:09:27 | 00:00:00 | |
| BIOWL1-15 | 2026-08-31 06:58:34 | 52.90672 | -0.66832 | 314° | 26km/h | 26336m | -17.2m/s | -48.9°C | 0.1% | 0hPa | 2.7V | 08:29:58 | 02:09:21 | 00:00:00 | |
| DM0DOS-11 | 2026-08-31 06:58:31 | 52.90669 | -0.66793 | 241° | 27km/h | 26403m | -16.8m/s | -49°C | 3.2% | 0hPa | 2.7V | 08:28:11 | 02:09:17 | 00:00:00 | |
| DB0UT-7 | 2026-08-31 06:58:31 | 52.90668 | -0.66824 | 291° | 38km/h | 26353m | -16.5m/s | -48.8°C | 3.1% | 0hPa | 2.6V | 00:00:00 | 02:09:20 | 00:00:00 | |
| DJ2DS-15 | 2026-08-31 06:58:23 | 52.90700 | -0.66779 | 156° | 35km/h | 26486m | -16.8m/s | -48.8°C | 0.7% | -1.0hPa | 2.6V | 00:00:00 | 00:00:00 | 00:00:00 | |
| DM0DOS-11 | 2026-08-31 06:58:19 | 52.90728 | -0.66843 | 96° | 42km/h | 26570m | -16.8m/s | -48.6°C | 3.1% | 0hPa | 2.6V | 08:28:21 | 02:09:07 | 00:00:00 | |
| DJ2DS-15 | 2026-08-31 06:58:15 | 52.90722 | -0.66895 | 59° | 31km/h | 26622m | -17.2m/s | -48.6°C | 3.1% | 0hPa | 2.7V | 00:00:00 | 02:09:04 | 00:00:00 | |
| DM0DOS-11 | 2026-08-31 06:58:09 | 52.90670 | -0.66920 | 322° | 31km/h | 26745m | -17.7m/s | -48.7°C | 3.1% | 0hPa | 2.7V | 08:28:31 | 02:08:57 | 00:00:00 | |
| DM0DOS-11 | 2026-08-31 06:57:59 | 52.90693 | -0.66839 | 131° | 27km/h | 26957m | -17.4m/s | -48.5°C | 3% | 0hPa | 2.7V | 08:28:43 | 02:08:45 | 00:00:00 | |
| DJ2DS-15 | 2026-08-31 06:57:47 | 52.90654 | -0.66958 | 21° | 53km/h | 27117m | -18.1m/s | -49.1°C | 0.8% | -1.0hPa | 2.7V | 00:00:00 | 00:00:00 | 00:00:00 | |
| BIOWL1-15 | 2026-08-31 06:57:38 | 52.90569 | -0.66921 | 268° | 22km/h | 27282m | -18.9m/s | 0°C | 0% | 0hPa | 2.7V | 08:29:58 | 02:08:27 | 00:00:00 | |
| DJ2DS-15 | 2026-08-31 06:57:35 | 52.90579 | -0.66902 | 196° | 42km/h | 27337m | -18.4m/s | -48.6°C | 3.2% | 0hPa | 2.7V | 00:00:00 | 02:08:24 | 00:00:00 | |
| DB0UT-7 | 2026-08-31 06:57:34 | 52.90585 | -0.66901 | 172° | 38km/h | 27355m | -18.5m/s | -48.5°C | 3.2% | 0hPa | 2.7V | 08:29:00 | 00:00:00 | 00:00:00 | |
| DM0DOS-11 | 2026-08-31 06:57:24 | 52.90637 | -0.67076 | 63° | 49km/h | 27555m | -17.7m/s | -48.1°C | 3% | 0hPa | 2.6V | 08:29:16 | 02:08:12 | 00:00:00 | |
| BIOWL1-15 | 2026-08-31 06:57:22 | 52.90631 | -0.67093 | 52° | 46km/h | 27573m | -19.5m/s | 0°C | 0% | 0hPa | 2.7V | 08:29:58 | 02:08:11 | 00:00:00 | |
| BIOWL9-15 | 2026-08-31 06:57:17 | 52.90585 | -0.67125 | 336° | 22km/h | 27688m | -16.9m/s | 0°C | -1.0% | -1.0hPa | 2.6V | 00:00:00 | 00:00:00 | 00:00:00 | |
| DM0DOS-11 | 2026-08-31 06:57:14 | 52.90572 | -0.67104 | 295° | 24km/h | 27741m | -20.6m/s | -48°C | 3% | 0hPa | 2.6V | 08:29:26 | 02:08:02 | 00:00:00 | |
| BIOWL1-15 | 2026-08-31 06:57:11 | 52.90567 | -0.67089 | 323° | 20km/h | 27785m | -22.3m/s | 0°C | 0% | 0hPa | 2.6V | 08:29:58 | 02:08:00 | 00:00:00 | |
| DM0DOS-11 | 2026-08-31 06:57:04 | 52.90525 | -0.67072 | 14° | 18km/h | 28040m | -33.8m/s | -48.6°C | 3.3% | 0hPa | 2.7V | 08:29:36 | 02:07:52 | 00:00:00 | |
| DB0UT-7 | 2026-08-31 06:57:04 | 52.90530 | -0.67071 | 355° | 9km/h | 28008m | -32.6m/s | -48.5°C | 3.3% | 0hPa | 2.6V | 00:00:00 | 02:07:53 | 00:00:00 | |
| DM0DOS-11 | 2026-08-31 06:56:54 | 52.90495 | -0.67128 | 76° | 15km/h | 28401m | -39.9m/s | -46.9°C | 2.8% | 0hPa | 2.6V | 08:29:46 | 02:07:42 | 00:00:00 | |
| BIOWL1-15 | 2026-08-31 06:56:45 | 52.90499 | -0.67160 | 160° | 7km/h | 28689m | -34.6m/s | 0°C | 0% | 0hPa | 2.7V | 08:29:58 | 02:07:34 | 00:00:00 | |
| DM0DOS-11 | 2026-08-31 06:56:44 | 52.90502 | -0.67162 | 158° | 7km/h | 28757m | -34.1m/s | -47.2°C | 3% | 0hPa | 2.6V | 08:29:56 | 02:07:32 | 00:00:00 | |
| BIOWL1-15 | 2026-08-31 06:56:37 | 52.90510 | -0.67191 | 76° | 5km/h | 29044m | -39m/s | 0°C | 0% | 0hPa | 2.6V | 18:12:15 | 02:07:24 | 00:00:00 | |
| DM0DOS-11 | 2026-08-31 06:56:34 | 52.90509 | -0.67196 | 90° | 7km/h | 29121m | -37.9m/s | -47.3°C | 3.1% | 0hPa | 2.7V | 08:30:00 | 02:07:22 | 00:00:00 | |
| BIOWL1-15 | 2026-08-31 06:56:25 | 52.90514 | -0.67196 | 158° | 13km/h | 29399m | -37.7m/s | 0°C | 0% | 0hPa | 2.6V | 18:12:15 | 02:07:14 | 00:00:00 | |
| DM0DOS-11 | 2026-08-31 06:56:24 | 52.90521 | -0.67203 | 148° | 22km/h | 29476m | -39.2m/s | -45.7°C | 2.7% | 0hPa | 2.6V | 08:30:00 | 02:07:12 | 00:00:00 | |
| DM0DOS-11 | 2026-08-31 06:56:19 | 52.90564 | -0.67223 | 221° | 15km/h | 29877m | -32m/s | -46.2°C | 2.8% | 0hPa | 2.6V | 08:30:00 | 02:07:02 | 00:00:00 | |
| DJ2DS-15 | 2026-08-31 06:56:15 | 52.90558 | -0.67229 | 193° | 15km/h | 29805m | -39.6m/s | -45.9°C | 2.7% | 0hPa | 2.7V | 00:00:00 | 02:07:04 | 00:00:00 | |
| DM0DOS-11 | 2026-08-31 06:56:08 | 52.90579 | -0.67169 | 193° | 9km/h | 29914m | 6m/s | -46.3°C | 2.8% | 0hPa | 2.7V | 08:30:00 | 02:06:52 | 00:00:00 | |
| BIOWL1-15 | 2026-08-31 06:56:02 | 52.90582 | -0.67169 | 166° | 13km/h | 29909m | 5.7m/s | 0°C | 0% | 0hPa | 2.7V | 18:12:15 | 02:06:51 | 00:00:00 | |
| DJ2DS-15 | 2026-08-31 06:55:59 | 52.90592 | -0.67179 | 143° | 16km/h | 29891m | 4.9m/s | -46.3°C | 0.6% | -1.0hPa | 2.6V | 00:00:00 | 00:00:00 | 00:00:00 | |
| DM0DOS-11 | 2026-08-31 06:55:58 | 52.90616 | -0.67174 | 234° | 15km/h | 29859m | 6m/s | -46.3°C | 2.8% | 0hPa | 2.6V | 08:30:00 | 02:06:42 | 00:00:00 | |
| DJ2DS-15 | 2026-08-31 06:55:55 | 52.90609 | -0.67184 | 205° | 13km/h | 29869m | 4.9m/s | -46.2°C | 2.8% | 0hPa | 2.6V | 00:00:00 | 02:06:44 | 00:00:00 | |
| DM0DOS-11 | 2026-08-31 06:55:48 | 52.90639 | -0.67184 | 166° | 15km/h | 29802m | 5.7m/s | -46°C | 2.8% | 0hPa | 2.6V | 08:30:00 | 02:06:32 | 00:00:00 | |
| DB0UT-7 | 2026-08-31 06:55:47 | 52.90621 | -0.67173 | 153° | 15km/h | 29825m | 5.7m/s | -46.1°C | 2.8% | 0hPa | 2.6V | 00:00:00 | 02:06:36 | 00:00:00 | |
| DM0DOS-11 | 2026-08-31 06:55:38 | 52.90658 | -0.67177 | 130° | 20km/h | 29741m | 5.2m/s | -45.8°C | 2.8% | 0hPa | 2.7V | 08:30:00 | 02:06:21 | 00:00:00 | |
| DJ2DS-15 | 2026-08-31 06:55:35 | 52.90653 | -0.67163 | 146° | 13km/h | 29757m | 6.2m/s | -45.7°C | 2.8% | 0hPa | 2.6V | 00:00:00 | 02:06:24 | 00:00:00 | |
| DM0DOS-11 | 2026-08-31 06:55:27 | 52.90680 | -0.67158 | 243° | 9km/h | 29691m | 6m/s | -45.9°C | 2.8% | 0hPa | 2.6V | 08:30:00 | 02:06:12 | 00:00:00 | |
| DM0DOS-11 | 2026-08-31 06:55:17 | 52.90707 | -0.67173 | 203° | 24km/h | 29635m | 4.9m/s | -45.6°C | 2.7% | 0hPa | 2.6V | 08:30:00 | 02:06:02 | 00:00:00 | |
| DJ2DS-15 | 2026-08-31 06:55:15 | 52.90697 | -0.67175 | 167° | 20km/h | 29647m | 6.4m/s | -45.7°C | 2.8% | 0hPa | 2.7V | 00:00:00 | 02:06:04 | 00:00:00 | |
| DM0DOS-11 | 2026-08-31 06:55:08 | 52.90742 | -0.67178 | 171° | 29km/h | 29583m | 5.2m/s | -46.1°C | 2.8% | 0hPa | 2.7V | 08:30:00 | 02:05:52 | 00:00:00 | |
| DM0DOS-11 | 2026-08-31 06:54:57 | 52.90795 | -0.67168 | 154° | 16km/h | 29527m | 6.6m/s | -46.1°C | 2.8% | 0hPa | 2.6V | 08:30:00 | 02:05:42 | 00:00:00 | |
| DJ2DS-15 | 2026-08-31 06:54:55 | 52.90785 | -0.67164 | 174° | 15km/h | 29538m | 5.0m/s | -46.0°C | 2.8% | 0hPa | 2.6V | 00:00:00 | 02:05:44 | 00:00:00 | |
| DM0DOS-11 | 2026-08-31 06:54:47 | 52.90826 | -0.67201 | 190° | 9km/h | 29468m | 6.5m/s | -46°C | 2.8% | 0hPa | 2.6V | 08:30:00 | 02:05:32 | 00:00:00 | |
| DJ2DS-15 | 2026-08-31 06:54:47 | 52.90815 | -0.67197 | 156° | 20km/h | 29487m | 5.1m/s | -46.1°C | 0.6% | -1.0hPa | 2.7V | 00:00:00 | 00:00:00 | 00:00:00 | |
| DM0DOS-11 | 2026-08-31 06:54:38 | 52.90844 | -0.67220 | 129° | 18km/h | 29410m | 6.7m/s | -46.1°C | 2.7% | 0hPa | 2.7V | 08:30:00 | 02:05:22 | 00:00:00 | |
| DJ2DS-15 | 2026-08-31 06:54:35 | 52.90840 | -0.67210 | 108° | 11km/h | 29422m | 5.3m/s | -46.1°C | 2.7% | 0hPa | 2.6V | 00:00:00 | 02:05:24 | 00:00:00 | |
| DB0UT-7 | 2026-08-31 06:54:32 | 52.90847 | -0.67225 | 136° | 13km/h | 29404m | 5.3m/s | -46.1°C | 2.7% | 0hPa | 2.6V | 00:00:00 | 00:00:00 | 00:00:00 | |
| DM0DOS-11 | 2026-08-31 06:54:27 | 52.90857 | -0.67253 | 66° | 9km/h | 29353m | 5.4m/s | -46.6°C | 2.7% | 0hPa | 2.6V | 08:30:00 | 02:05:12 | 00:00:00 | |
| DM0DOS-11 | 2026-08-31 06:54:17 | 52.90841 | -0.67290 | 7° | 9km/h | 29295m | 4.9m/s | -47.4°C | 2.9% | 0hPa | 2.6V | 08:30:00 | 02:05:02 | 00:00:00 | |
| BIOWL9-15 | 2026-08-31 06:54:11 | 52.90835 | -0.67293 | 58° | 5km/h | 29279m | 5.6m/s | -47.5°C | 0.7% | -1.0hPa | 2.7V | 00:00:00 | 00:00:00 | 00:00:00 | |
| DM0DOS-11 | 2026-08-31 06:54:07 | 52.90817 | -0.67346 | 66° | 20km/h | 29240m | 6m/s | -47.8°C | 3% | 0hPa | 2.7V | 08:30:00 | 02:04:52 | 00:00:00 | |
| BIOWL1-15 | 2026-08-31 06:54:02 | 52.90816 | -0.67352 | 84° | 13km/h | 29235m | 5.3m/s | -47.8°C | 0% | 0hPa | 2.7V | 18:12:15 | 02:04:51 | 00:00:00 | |
| DB0UT-7 | 2026-08-31 06:54:02 | 52.90816 | -0.67352 | 85° | 5km/h | 29235m | 5.3m/s | -47.7°C | 3.0% | 0hPa | 2.6V | 00:00:00 | 02:04:51 | 00:00:00 | |
| DM0DOS-11 | 2026-08-31 06:53:57 | 52.90814 | -0.67363 | 28° | 2km/h | 29183m | 5m/s | -48°C | 3% | 0hPa | 2.6V | 08:30:00 | 02:04:42 | 00:00:00 | |
| BIOWL1-15 | 2026-08-31 06:53:51 | 52.90808 | -0.67377 | 56° | 13km/h | 29161m | 5m/s | -48.1°C | 0% | 0hPa | 2.6V | 18:12:15 | 02:04:38 | 00:00:00 | |
| DM0DOS-11 | 2026-08-31 06:53:47 | 52.90810 | -0.67382 | 156° | 4km/h | 29125m | 6.1m/s | -48.1°C | 3% | 0hPa | 2.6V | 08:30:00 | 02:04:32 | 00:00:00 | |
| BIOWL1-15 | 2026-08-31 06:53:43 | 52.90812 | -0.67384 | 143° | 7km/h | 29114m | 6.1m/s | -48.2°C | 0.1% | 0hPa | 2.6V | 18:12:15 | 02:04:30 | 00:00:00 | |
| DM0DOS-11 | 2026-08-31 06:53:37 | 52.90823 | -0.67404 | 111° | 2km/h | 29065m | 6.2m/s | -48.2°C | 3.1% | 0hPa | 2.6V | 08:30:00 | 02:04:22 | 00:00:00 | |
| BIOWL1-15 | 2026-08-31 06:53:33 | 52.90825 | -0.67403 | 203° | 9km/h | 29054m | 4.9m/s | -48.1°C | 0.1% | 0hPa | 2.7V | 18:12:15 | 02:04:20 | 00:00:00 | |
| DB0UT-7 | 2026-08-31 06:53:32 | 52.90823 | -0.67403 | 198° | 7km/h | 29060m | 5.9m/s | -48.1°C | 3.1% | 0hPa | 2.7V | 00:00:00 | 00:00:00 | 00:00:00 | |
| DM0DOS-11 | 2026-08-31 06:53:27 | 52.90843 | -0.67397 | 192° | 11km/h | 29006m | 4.7m/s | -48°C | 3.1% | 0hPa | 2.7V | 08:30:00 | 02:04:12 | 00:00:00 | |
| BIOWL1-15 | 2026-08-31 06:53:21 | 52.90847 | -0.67398 | 128° | 5km/h | 28994m | 7.1m/s | -48°C | 0.1% | 0hPa | 2.6V | 18:12:15 | 02:04:10 | 00:00:00 | |
| DM0DOS-11 | 2026-08-31 06:53:18 | 52.90857 | -0.67405 | 207° | 9km/h | 28948m | 6.6m/s | -47.8°C | 3% | 0hPa | 2.7V | 08:30:00 | 02:04:02 | 00:00:00 | |
| BIOWL1-15 | 2026-08-31 06:53:13 | 52.90860 | -0.67404 | 148° | 4km/h | 28935m | 5.8m/s | -47.9°C | 0% | 0hPa | 2.7V | 18:12:15 | 02:04:00 | 00:00:00 | |
| BIOWL9-15 | 2026-08-31 06:53:08 | 52.90862 | -0.67407 | 162° | 4km/h | 28917m | 6.2m/s | -47.8°C | 0.7% | -1.0hPa | 2.6V | 00:00:00 | 00:00:00 | 00:00:00 | |
| DM0DOS-11 | 2026-08-31 06:53:07 | 52.90868 | -0.67420 | 128° | 9km/h | 28886m | 6m/s | -47.7°C | 3% | 0hPa | 2.6V | 08:30:00 | 02:03:52 | 00:00:00 | |
| BIOWL1-15 | 2026-08-31 06:53:00 | 52.90874 | -0.67423 | 176° | 7km/h | 28868m | 5.5m/s | -47.8°C | 0% | 0hPa | 2.7V | 18:12:15 | 02:03:49 | 00:00:00 | |
| DJ2DS-15 | 2026-08-31 06:52:59 | 52.90876 | -0.67425 | 106° | 5km/h | 28856m | 6.2m/s | -47.8°C | 0.7% | -1.0hPa | 2.7V | 00:00:00 | 00:00:00 | 00:00:00 | |
| DM0DOS-11 | 2026-08-31 06:52:57 | 52.90878 | -0.67434 | 185° | 2km/h | 28826m | 5.2m/s | -47.9°C | 3.1% | 0hPa | 2.7V | 08:30:00 | 02:03:42 | 00:00:00 | |
| BIOWL1-15 | 2026-08-31 06:52:50 | 52.90877 | -0.67436 | 34° | 5km/h | 28808m | 6.1m/s | -47.9°C | 0% | 0hPa | 2.6V | 18:12:15 | 02:03:39 | 00:00:00 | |
| DM0DOS-11 | 2026-08-31 06:52:47 | 52.90877 | -0.67437 | 146° | 2km/h | 28766m | 5.4m/s | -47.9°C | 3.1% | 0hPa | 2.7V | 08:30:00 | 02:03:32 | 00:00:00 | |
| BIOWL1-15 | 2026-08-31 06:52:41 | 52.90890 | -0.67459 | 92° | 15km/h | 28723m | 5.6m/s | -47.7°C | 0% | 0hPa | 2.7V | 18:12:15 | 02:03:25 | 00:00:00 | |
| DM0DOS-11 | 2026-08-31 06:52:38 | 52.90889 | -0.67471 | 82° | 4km/h | 28706m | 6.5m/s | -47.7°C | 3% | 0hPa | 2.7V | 08:30:00 | 02:03:22 | 00:00:00 | |
| BIOWL1-15 | 2026-08-31 06:52:30 | 52.90891 | -0.67465 | 104° | 9km/h | 28665m | 6.7m/s | -47.6°C | 0% | 0hPa | 2.6V | 18:12:15 | 02:03:15 | 00:00:00 | |
| DM0DOS-11 | 2026-08-31 06:52:27 | 52.90897 | -0.67485 | 111° | 22km/h | 28647m | 5.5m/s | -47.6°C | 3% | 0hPa | 2.6V | 08:30:00 | 02:03:12 | 00:00:00 | |
| DJ2DS-15 | 2026-08-31 06:52:23 | 52.90898 | -0.67493 | 95° | 20km/h | 28641m | 6.8m/s | -47.7°C | 0.7% | -1.0hPa | 2.6V | 00:00:00 | 00:00:00 | 00:00:00 | |
| DM0DOS-11 | 2026-08-31 06:52:17 | 52.90889 | -0.67526 | 73° | 9km/h | 28588m | 5.3m/s | -47.5°C | 2.9% | 0hPa | 2.6V | 08:30:00 | 02:03:02 | 00:00:00 | |
| BIOWL1-15 | 2026-08-31 06:52:14 | 52.90890 | -0.67524 | 60° | 5km/h | 28594m | 6.1m/s | -47.5°C | 0% | 0hPa | 2.7V | 18:12:15 | 02:03:03 | 00:00:00 | |
| DM0DOS-11 | 2026-08-31 06:52:07 | 52.90882 | -0.67595 | 32° | 9km/h | 28528m | 6.2m/s | -47.7°C | 3% | 0hPa | 2.7V | 08:30:00 | 02:02:52 | 00:00:00 | |
| BIOWL1-15 | 2026-08-31 06:52:01 | 52.90879 | -0.67598 | 24° | 7km/h | 28516m | 6.2m/s | -47.7°C | 0% | 0hPa | 2.6V | 18:12:15 | 02:02:50 | 00:00:00 | |
| DM0DOS-11 | 2026-08-31 06:51:57 | 52.90875 | -0.67643 | 69° | 22km/h | 28468m | 6.9m/s | -47.7°C | 2.9% | 0hPa | 2.6V | 08:30:00 | 02:02:42 | 00:00:00 | |
| BIOWL1-15 | 2026-08-31 06:51:52 | 52.90866 | -0.67665 | 44° | 18km/h | 28452m | 6.7m/s | -47.7°C | 0% | 0hPa | 2.7V | 18:12:15 | 02:02:39 | 00:00:00 | |
| DM0DOS-11 | 2026-08-31 06:51:48 | 52.90847 | -0.67696 | 51° | 16km/h | 28411m | 5.2m/s | -48°C | 3% | 0hPa | 2.6V | 08:30:00 | 02:02:32 | 00:00:00 | |
| DM0DOS-11 | 2026-08-31 06:51:37 | 52.90829 | -0.67745 | 16° | 15km/h | 28349m | 5.7m/s | -48.5°C | 3.1% | 0hPa | 2.7V | 08:30:00 | 02:02:22 | 00:00:00 | |
| BIOWL1-15 | 2026-08-31 06:51:34 | 52.90833 | -0.67742 | 30° | 16km/h | 28356m | 6.8m/s | -48.5°C | 0.1% | 0hPa | 2.7V | 18:12:15 | 02:02:23 | 00:00:00 | |
| DM0DOS-11 | 2026-08-31 06:51:27 | 52.90792 | -0.67777 | 69° | 13km/h | 28290m | 6m/s | -48.8°C | 3.1% | 0hPa | 2.7V | 08:30:00 | 02:02:12 | 00:00:00 | |
| BIOWL1-15 | 2026-08-31 06:51:21 | 52.90777 | -0.67797 | 353° | 13km/h | 28255m | 5.8m/s | -49.1°C | 0.1% | 0hPa | 2.7V | 18:12:15 | 02:02:06 | 00:00:00 | |
| DM0DOS-11 | 2026-08-31 06:51:18 | 52.90760 | -0.67804 | 31° | 24km/h | 28231m | 5.2m/s | -49.2°C | 3.2% | 0hPa | 2.6V | 08:30:00 | 02:02:02 | 00:00:00 | |
| DJ2DS-15 | 2026-08-31 06:51:15 | 52.90769 | -0.67797 | 15° | 20km/h | 28244m | 6.7m/s | -49.1°C | 3.2% | 0hPa | 2.7V | 00:00:00 | 02:02:04 | 00:00:00 | |
| DJ2DS-15 | 2026-08-31 06:51:10 | 52.90747 | -0.67819 | 28° | 16km/h | 28214m | 5.4m/s | -49.2°C | 0.8% | -1.0hPa | 2.7V | 00:00:00 | 00:00:00 | 00:00:00 | |
| DM0DOS-11 | 2026-08-31 06:51:06 | 52.90718 | -0.67828 | 331° | 18km/h | 28171m | 6.5m/s | -49.2°C | 3.2% | 0hPa | 2.7V | 08:30:00 | 02:01:52 | 00:00:00 | |
| BIOWL9-15 | 2026-08-31 06:51:04 | 52.90722 | -0.67831 | 348° | 16km/h | 28178m | 7.4m/s | -49.2°C | 0.8% | -1.0hPa | 2.6V | 00:00:00 | 00:00:00 | 00:00:00 | |
| BIOWL1-15 | 2026-08-31 06:51:04 | 52.90722 | -0.67831 | 348° | 16km/h | 28178m | 7.4m/s | -49.2°C | 0.2% | 0hPa | 2.7V | 18:12:15 | 02:01:53 | 00:00:00 | |
| DM0DOS-11 | 2026-08-31 06:50:54 | 52.90661 | -0.67802 | 9° | 22km/h | 28109m | 5.6m/s | -49.1°C | 3.3% | 0hPa | 2.6V | 08:30:00 | 02:01:42 | 00:00:00 | |
| DM0DOS-11 | 2026-08-31 06:50:48 | 52.90610 | -0.67753 | 326° | 27km/h | 28049m | 6.6m/s | -49.1°C | 3.3% | 0hPa | 2.6V | 08:30:00 | 02:01:32 | 00:00:00 | |
| BIOWL1-15 | 2026-08-31 06:50:47 | 52.90616 | -0.67759 | 327° | 31km/h | 28056m | 6.8m/s | -49.1°C | 0.2% | 0hPa | 2.6V | 18:12:15 | 02:01:33 | 00:00:00 | |
| DM0DOS-11 | 2026-08-31 06:50:36 | 52.90563 | -0.67714 | 307° | 26km/h | 27989m | 7.1m/s | -48.9°C | 3.2% | 0hPa | 2.6V | 08:30:00 | 02:01:22 | 00:00:00 | |
| BIOWL1-15 | 2026-08-31 06:50:34 | 52.90567 | -0.67722 | 302° | 22km/h | 27996m | 5.4m/s | -48.9°C | 0.2% | 0hPa | 2.7V | 18:12:15 | 02:01:23 | 00:00:00 | |
| BIOWL9-15 | 2026-08-31 06:50:33 | 52.90563 | -0.67714 | 307° | 24km/h | 27989m | 7.1m/s | -48.9°C | 0.8% | -1.0hPa | 2.7V | 00:00:00 | 00:00:00 | 00:00:00 | |
| DB0UT-7 | 2026-08-31 06:50:28 | 52.90542 | -0.67679 | 316° | 15km/h | 27960m | 6.0m/s | -48.7°C | 3.2% | 0hPa | 2.7V | 00:00:00 | 00:00:00 | 00:00:00 | |
| DM0DOS-11 | 2026-08-31 06:50:24 | 52.90521 | -0.67660 | 340° | 15km/h | 27929m | 7m/s | -48.6°C | 3.2% | 0hPa | 2.7V | 08:30:00 | 02:01:12 | 00:00:00 | |
| BIOWL1-15 | 2026-08-31 06:50:23 | 52.90521 | -0.67660 | 341° | 15km/h | 27929m | 7m/s | -48.6°C | 0.1% | 0hPa | 2.7V | 18:12:15 | 02:01:12 | 00:00:00 | |
| DM0DOS-11 | 2026-08-31 06:50:19 | 52.90506 | -0.67611 | 288° | 13km/h | 27868m | 6m/s | -48.4°C | 3.1% | 0hPa | 2.6V | 08:30:00 | 02:01:02 | 00:00:00 | |
| BIOWL1-15 | 2026-08-31 06:50:12 | 52.90505 | -0.67607 | 296° | 9km/h | 27862m | 5.9m/s | -48.4°C | 0.1% | 0hPa | 2.7V | 18:12:15 | 02:01:01 | 00:00:00 | |
| DM0DOS-11 | 2026-08-31 06:50:06 | 52.90493 | -0.67592 | 257° | 16km/h | 27807m | 6.5m/s | -48.4°C | 3.1% | 0hPa | 2.7V | 08:30:00 | 02:00:52 | 00:00:00 | |
| BIOWL1-15 | 2026-08-31 06:50:01 | 52.90494 | -0.67579 | 258° | 16km/h | 27795m | 5.4m/s | -48.4°C | 0.1% | 0hPa | 2.6V | 18:12:15 | 02:00:50 | 00:00:00 | |
| DB0UT-7 | 2026-08-31 06:49:58 | 52.90499 | -0.67564 | 222° | 11km/h | 27776m | 5.8m/s | -48.3°C | 3.1% | 0hPa | 2.7V | 00:00:00 | 02:00:47 | 08:30:00 | |
| DM0DOS-11 | 2026-08-31 06:49:54 | 52.90495 | -0.67565 | 42° | 7km/h | 27744m | 7.1m/s | -48.3°C | 3.1% | 0hPa | 2.7V | 08:30:00 | 02:00:42 | 00:00:00 | |
| BIOWL1-15 | 2026-08-31 06:49:51 | 52.90493 | -0.67571 | 304° | 4km/h | 27719m | 6.6m/s | -48.3°C | 0.1% | 0hPa | 2.6V | 18:12:15 | 02:00:38 | 00:00:00 | |
| DM0DOS-11 | 2026-08-31 06:49:48 | 52.90498 | -0.67557 | 188° | 7km/h | 27683m | 5.5m/s | -48.3°C | 3.1% | 0hPa | 2.6V | 08:30:00 | 02:00:32 | 00:00:00 | |
| BIOWL1-15 | 2026-08-31 06:49:40 | 52.90497 | -0.67568 | 118° | 13km/h | 27644m | 6.6m/s | -48.3°C | 0.1% | 0hPa | 2.6V | 18:12:15 | 02:00:26 | 00:00:00 | |
| DM0DOS-11 | 2026-08-31 06:49:36 | 52.90505 | -0.67585 | 135° | 11km/h | 27617m | 5.5m/s | -48.5°C | 3.1% | 0hPa | 2.6V | 08:30:00 | 02:00:22 | 00:00:00 | |
| BIOWL1-15 | 2026-08-31 06:49:26 | 52.90523 | -0.67619 | 105° | 16km/h | 27573m | 6m/s | -48.4°C | 0.1% | 0hPa | 2.7V | 18:12:15 | 02:00:15 | 00:00:00 | |
| DM0DOS-11 | 2026-08-31 06:49:24 | 52.90527 | -0.67646 | 108° | 26km/h | 27553m | 5.6m/s | -48.5°C | 3.1% | 0hPa | 2.6V | 08:30:00 | 02:00:12 | 00:00:00 | |
| DJ2DS-15 | 2026-08-31 06:49:22 | 52.90530 | -0.67656 | 108° | 26km/h | 27547m | 5.5m/s | -48.5°C | 0.8% | -1.0hPa | 2.6V | 00:00:00 | 00:00:00 | 00:00:00 | |
| DM0DOS-11 | 2026-08-31 06:49:18 | 52.90550 | -0.67723 | 102° | 18km/h | 27490m | 5.4m/s | -48.6°C | 3.1% | 0hPa | 2.6V | 08:30:00 | 02:00:02 | 00:00:00 | |
| BIOWL1-15 | 2026-08-31 06:49:15 | 52.90549 | -0.67716 | 115° | 18km/h | 27496m | 6.9m/s | -48.6°C | 0.1% | 0hPa | 2.7V | 18:12:15 | 02:00:03 | 00:00:00 | |
| BIOWL1-15 | 2026-08-31 06:49:07 | 52.90562 | -0.67805 | 93° | 15km/h | 27417m | 7.4m/s | 0°C | 0% | 0hPa | 2.6V | 18:12:15 | 01:59:50 | 00:00:00 | |
| BIOWL1-15 | 2026-08-31 06:48:51 | 52.90552 | -0.67890 | 74° | 11km/h | 27329m | 6.8m/s | 0°C | 0% | 0hPa | 2.6V | 18:12:15 | 01:59:36 | 00:00:00 | |
| DJ2DS-15 | 2026-08-31 06:48:46 | 52.90551 | -0.67894 | 61° | 9km/h | 27322m | 6.1m/s | -48.7°C | 0.7% | -1.0hPa | 2.6V | 00:00:00 | 00:00:00 | 00:00:00 | |
| DM0DOS-11 | 2026-08-31 06:48:45 | 52.90546 | -0.67920 | 75° | 24km/h | 27298m | 5.5m/s | -48.9°C | 3.2% | 0hPa | 2.6V | 08:30:00 | 01:59:31 | 00:00:00 | |
| BIOWL1-15 | 2026-08-31 06:48:37 | 52.90528 | -0.67951 | 12° | 22km/h | 27269m | 6.7m/s | 0°C | 0% | 0hPa | 2.7V | 18:12:15 | 01:59:26 | 00:00:00 | |
| DM0DOS-11 | 2026-08-31 06:48:37 | 52.90504 | -0.67957 | 3° | 20km/h | 27236m | 5.9m/s | -48.7°C | 3.2% | 0hPa | 2.7V | 08:30:00 | 01:59:21 | 00:00:00 | |
| DJ2DS-15 | 2026-08-31 06:48:35 | 52.90518 | -0.67954 | 10° | 20km/h | 27256m | 5.8m/s | -48.7°C | 3.2% | 0hPa | 2.6V | 00:00:00 | 01:59:24 | 00:00:00 | |
| DM0DOS-11 | 2026-08-31 06:48:27 | 52.90463 | -0.67984 | 7° | 24km/h | 27176m | 6.6m/s | -48.6°C | 3.2% | 0hPa | 2.6V | 08:30:00 | 01:59:11 | 00:00:00 | |
| DM0DOS-11 | 2026-08-31 06:48:16 | 52.90412 | -0.68007 | 26° | 20km/h | 27113m | 6.9m/s | -48.5°C | 3.1% | 0hPa | 2.7V | 08:30:00 | 01:59:01 | 00:00:00 | |
| DJ2DS-15 | 2026-08-31 06:48:15 | 52.90424 | -0.67996 | 20° | 20km/h | 27132m | 7.3m/s | -48.5°C | 3.1% | 0hPa | 2.7V | 00:00:00 | 01:59:04 | 00:00:00 | |
| DJ2DS-15 | 2026-08-31 06:48:10 | 52.90401 | -0.68013 | 12° | 27km/h | 27100m | 6.2m/s | -48.6°C | 0.8% | -1.0hPa | 2.7V | 00:00:00 | 00:00:00 | 00:00:00 | |
| DM0DOS-11 | 2026-08-31 06:48:04 | 52.90351 | -0.68017 | 355° | 20km/h | 27051m | 4.7m/s | -48.4°C | 3.1% | 0hPa | 2.7V | 08:30:00 | 01:58:51 | 00:00:00 | |
| DM0DOS-11 | 2026-08-31 06:47:57 | 52.90311 | -0.68030 | 350° | 15km/h | 26987m | 5.4m/s | -48.2°C | 3.1% | 0hPa | 2.6V | 08:30:00 | 01:58:41 | 00:00:00 | |
| DJ2DS-15 | 2026-08-31 06:47:55 | 52.90325 | -0.68030 | 8° | 15km/h | 27006m | 6.1m/s | -48.2°C | 3.1% | 0hPa | 2.7V | 00:00:00 | 01:58:44 | 08:30:00 | |
| DM0DOS-11 | 2026-08-31 06:47:47 | 52.90285 | -0.68038 | 23° | 18km/h | 26925m | 5.8m/s | -48.1°C | 3% | 0hPa | 2.7V | 08:30:00 | 01:58:31 | 00:00:00 | |
| DM0DOS-11 | 2026-08-31 06:47:36 | 52.90251 | -0.68041 | 17° | 5km/h | 26863m | 5.2m/s | -48.1°C | 3% | 0hPa | 2.6V | 08:30:00 | 01:58:21 | 00:00:00 | |
| DB0UT-7 | 2026-08-31 06:47:36 | 52.90262 | -0.68044 | 353° | 7km/h | 26888m | 6.3m/s | -48.1°C | 3.0% | 0hPa | 2.6V | 00:00:00 | 00:00:00 | 00:00:00 | |
| DJ2DS-15 | 2026-08-31 06:47:35 | 52.90258 | -0.68042 | 350° | 9km/h | 26882m | 5.6m/s | -48.1°C | 3.1% | 0hPa | 2.6V | 00:00:00 | 01:58:24 | 00:00:00 | |
| DJ2DS-15 | 2026-08-31 06:47:34 | 52.90255 | -0.68042 | 346° | 11km/h | 26876m | 6.2m/s | -48.1°C | 0.7% | -1.0hPa | 2.6V | 00:00:00 | 00:00:00 | 00:00:00 | |
| DM0DOS-11 | 2026-08-31 06:47:25 | 52.90229 | -0.68051 | 323° | 13km/h | 26804m | 4.6m/s | -48.4°C | 3.1% | 0hPa | 2.6V | 08:30:00 | 01:58:11 | 00:00:00 | |
| DM0DOS-11 | 2026-08-31 06:47:17 | 52.90221 | -0.68053 | 86° | 5km/h | 26743m | 5.3m/s | -48.4°C | 3.1% | 0hPa | 2.6V | 08:30:00 | 01:58:01 | 00:00:00 | |
| DJ2DS-15 | 2026-08-31 06:47:15 | 52.90222 | -0.68047 | 75° | 9km/h | 26762m | 5.3m/s | -48.5°C | 3.1% | 0hPa | 2.6V | 00:00:00 | 01:58:04 | 00:00:00 | |
| DM0DOS-11 | 2026-08-31 06:47:07 | 52.90202 | -0.68074 | 85° | 9km/h | 26685m | 6.2m/s | -48.2°C | 3% | 0hPa | 2.6V | 08:30:00 | 01:57:51 | 00:00:00 | |
| DB0UT-7 | 2026-08-31 06:47:04 | 52.90203 | -0.68064 | 66° | 13km/h | 26697m | 4.8m/s | -48.2°C | 3.0% | 0hPa | 2.7V | 00:00:00 | 01:57:53 | 00:00:00 | |
| DM0DOS-11 | 2026-08-31 06:46:57 | 52.90200 | -0.68106 | 51° | 7km/h | 26628m | 6.6m/s | -48.6°C | 3.1% | 0hPa | 2.7V | 08:30:00 | 01:57:41 | 00:00:00 | |
| DJ2DS-15 | 2026-08-31 06:46:54 | 52.90202 | -0.68103 | 31° | 13km/h | 26640m | 4.7m/s | -48.4°C | 3.1% | 0hPa | 2.7V | 00:00:00 | 01:57:43 | 00:00:00 | |
| DM0DOS-11 | 2026-08-31 06:46:46 | 52.90185 | -0.68174 | 68° | 20km/h | 26569m | 5m/s | -48.8°C | 3.1% | 0hPa | 2.6V | 08:30:00 | 01:57:31 | 00:00:00 | |
| DM0DOS-11 | 2026-08-31 06:46:34 | 52.90176 | -0.68214 | 69° | 9km/h | 26511m | 5.1m/s | -49°C | 3.2% | 0hPa | 2.7V | 08:30:00 | 01:57:21 | 00:00:00 | |
| DJ2DS-15 | 2026-08-31 06:46:34 | 52.90177 | -0.68206 | 75° | 9km/h | 26522m | 6.6m/s | -48.9°C | 3.1% | 0hPa | 2.6V | 00:00:00 | 01:57:23 | 00:00:00 | |
| DM0DOS-11 | 2026-08-31 06:46:27 | 52.90171 | -0.68259 | 71° | 11km/h | 26452m | 5.5m/s | -49.2°C | 3.2% | 0hPa | 2.6V | 08:30:00 | 01:57:11 | 00:00:00 | |
| DJ2DS-15 | 2026-08-31 06:46:22 | 52.90171 | -0.68259 | 71° | 9km/h | 26452m | 5.5m/s | -49.2°C | 0.8% | -1.0hPa | 2.7V | 00:00:00 | 00:00:00 | 00:00:00 | |
| DM0DOS-11 | 2026-08-31 06:46:14 | 52.90155 | -0.68286 | 55° | 9km/h | 26393m | 5.4m/s | -49.4°C | 3.2% | 0hPa | 2.7V | 08:30:00 | 01:57:01 | 00:00:00 | |
| DM0DOS-11 | 2026-08-31 06:46:05 | 52.90158 | -0.68331 | 96° | 11km/h | 26335m | 5.2m/s | -49.5°C | 3.2% | 0hPa | 2.6V | 08:30:00 | 01:56:51 | 00:00:00 | |
| DB0UT-7 | 2026-08-31 06:46:04 | 52.90157 | -0.68322 | 106° | 11km/h | 26347m | 6.6m/s | -49.5°C | 3.2% | 0hPa | 2.6V | 00:00:00 | 01:56:53 | 00:00:00 | |
| DM0DOS-11 | 2026-08-31 06:45:55 | 52.90144 | -0.68357 | 53° | 7km/h | 26276m | 4.9m/s | -49.6°C | 3.2% | 0hPa | 2.6V | 08:30:00 | 01:56:41 | 00:00:00 | |
| DJ2DS-15 | 2026-08-31 06:45:46 | 52.90141 | -0.68381 | 68° | 9km/h | 26240m | 5.4m/s | -50.0°C | 0.8% | -1.0hPa | 2.6V | 00:00:00 | 00:00:00 | 00:00:00 | |
| DM0DOS-11 | 2026-08-31 06:45:43 | 52.90135 | -0.68402 | 47° | 16km/h | 26216m | 6.3m/s | -50.2°C | 3.3% | 0hPa | 2.6V | 08:30:00 | 01:56:31 | 00:00:00 | |
| DM0DOS-11 | 2026-08-31 06:45:35 | 52.90106 | -0.68431 | 10° | 7km/h | 26160m | 5.2m/s | -50.3°C | 3.4% | 0hPa | 2.7V | 08:30:00 | 01:56:21 | 00:00:00 | |
| DB0UT-7 | 2026-08-31 06:45:34 | 52.90110 | -0.68429 | 22° | 11km/h | 26171m | 6.5m/s | -50.3°C | 3.4% | 0hPa | 2.7V | 00:00:00 | 00:00:00 | 00:00:00 | |
| DM0DOS-11 | 2026-08-31 06:45:24 | 52.90083 | -0.68466 | 44° | 13km/h | 26102m | 6.3m/s | -50.3°C | 3.4% | 0hPa | 2.7V | 08:30:00 | 01:56:11 | 00:00:00 | |
| DJ2DS-15 | 2026-08-31 06:45:21 | 52.90080 | -0.68469 | 28° | 9km/h | 26096m | 6.1m/s | -50.3°C | 3.4% | 0hPa | 2.6V | 00:00:00 | 01:56:10 | 00:00:00 | |
| DM0DOS-11 | 2026-08-31 06:45:15 | 52.90062 | -0.68490 | 39° | 13km/h | 26043m | 6.5m/s | -50.4°C | 3.4% | 0hPa | 2.7V | 08:30:00 | 01:56:01 | 00:00:00 | |
| DJ2DS-15 | 2026-08-31 06:45:10 | 52.90058 | -0.68497 | 39° | 9km/h | 26032m | 5.1m/s | -50.3°C | 0.9% | -1.0hPa | 2.6V | 00:00:00 | 00:00:00 | 00:00:00 | |
| DM0DOS-11 | 2026-08-31 06:45:05 | 52.90040 | -0.68507 | 352° | 7km/h | 25986m | 6.1m/s | -50.3°C | 3.4% | 0hPa | 2.6V | 08:30:00 | 01:55:51 | 00:00:00 | |
| DB0UT-7 | 2026-08-31 06:45:04 | 52.90044 | -0.68505 | 32° | 9km/h | 25999m | 5.2m/s | -50.2°C | 3.4% | 0hPa | 2.7V | 00:00:00 | 01:55:53 | 00:00:00 | |
| DJ2DS-15 | 2026-08-31 06:45:01 | 52.90038 | -0.68506 | 347° | 7km/h | 25980m | 5.4m/s | -50.2°C | 3.4% | 0hPa | 2.6V | 00:00:00 | 01:55:50 | 00:00:00 | |
| DM0DOS-11 | 2026-08-31 06:44:57 | 52.90024 | -0.68515 | 22° | 15km/h | 25928m | 5.9m/s | -50.3°C | 3.3% | 0hPa | 2.6V | 08:30:00 | 01:55:41 | 00:00:00 | |
| DM0DOS-11 | 2026-08-31 06:44:45 | 52.90004 | -0.68525 | 5° | 7km/h | 25871m | 5.3m/s | -50.4°C | 3.4% | 0hPa | 2.6V | 08:30:00 | 01:55:31 | 00:00:00 | |
| DJ2DS-15 | 2026-08-31 06:44:41 | 52.90002 | -0.68525 | 7° | 16km/h | 25866m | 5.0m/s | -50.3°C | 3.4% | 0hPa | 2.6V | 00:00:00 | 01:55:30 | 00:00:00 | |
| DM0DOS-11 | 2026-08-31 06:44:35 | 52.89964 | -0.68547 | 25° | 22km/h | 25814m | 5.7m/s | -50.3°C | 3.3% | 0hPa | 2.6V | 08:30:00 | 01:55:21 | 00:00:00 | |
| DB0UT-7 | 2026-08-31 06:44:34 | 52.89974 | -0.68542 | 9° | 15km/h | 25827m | 4.8m/s | -50.2°C | 3.3% | 0hPa | 2.6V | 00:00:00 | 00:00:00 | 00:00:00 | |
| DM0DOS-11 | 2026-08-31 06:44:25 | 52.89930 | -0.68558 | 344° | 13km/h | 25755m | 4.8m/s | -50.4°C | 3.4% | 0hPa | 2.6V | 08:30:00 | 01:55:11 | 00:00:00 | |
| DJ2DS-15 | 2026-08-31 06:44:21 | 52.89927 | -0.68557 | 358° | 13km/h | 25749m | 6.8m/s | -50.3°C | 3.3% | 0hPa | 2.6V | 00:00:00 | 01:55:10 | 08:30:00 | |
| DM0DOS-11 | 2026-08-31 06:44:15 | 52.89896 | -0.68549 | 333° | 13km/h | 25698m | 5.2m/s | -50.5°C | 3.4% | 0hPa | 2.6V | 08:30:00 | 01:55:01 | 00:00:00 | |
| DM0DOS-11 | 2026-08-31 06:44:05 | 52.89870 | -0.68520 | 316° | 11km/h | 25640m | 4.8m/s | -50.4°C | 3.4% | 0hPa | 2.6V | 08:30:00 | 01:54:51 | 00:00:00 | |
| DB0UT-7 | 2026-08-31 06:44:04 | 52.89875 | -0.68525 | 332° | 15km/h | 25651m | 6.0m/s | -50.4°C | 3.4% | 0hPa | 2.7V | 00:00:00 | 01:54:53 | 00:00:00 | |
| DJ2DS-15 | 2026-08-31 06:43:58 | 52.89860 | -0.68509 | 319° | 15km/h | 25612m | 6.9m/s | -50.5°C | 0.8% | -1.0hPa | 2.7V | 00:00:00 | 00:00:00 | 00:00:00 | |
| DM0DOS-11 | 2026-08-31 06:43:55 | 52.89846 | -0.68480 | 296° | 13km/h | 25583m | 5.7m/s | -50.6°C | 3.4% | 0hPa | 2.7V | 08:30:00 | 01:54:41 | 00:00:00 | |
| DM0DOS-11 | 2026-08-31 06:43:45 | 52.89827 | -0.68421 | 332° | 20km/h | 25524m | 4.5m/s | -50.7°C | 3.4% | 0hPa | 2.7V | 08:30:00 | 01:54:31 | 00:00:00 | |
| DJ2DS-15 | 2026-08-31 06:43:41 | 52.89823 | -0.68418 | 346° | 11km/h | 25518m | 6.4m/s | -50.6°C | 3.4% | 0hPa | 2.7V | 00:00:00 | 01:54:30 | 00:00:00 | |
| DM0DOS-11 | 2026-08-31 06:43:35 | 52.89820 | -0.68389 | 252° | 16km/h | 25465m | 5.3m/s | -50.9°C | 3.4% | 0hPa | 2.7V | 08:30:00 | 01:54:21 | 00:00:00 | |
| BIOWL1-15 | 2026-08-31 06:43:32 | 52.89820 | -0.68375 | 293° | 18km/h | 25453m | 5.5m/s | -50.9°C | 0.3% | 0hPa | 2.6V | 18:12:15 | 01:54:19 | 00:00:00 | |
| DM0DOS-11 | 2026-08-31 06:43:24 | 52.89814 | -0.68355 | 183° | 11km/h | 25407m | 6.4m/s | -50.9°C | 3.4% | 0hPa | 2.7V | 08:30:00 | 01:54:11 | 00:00:00 | |
| BIOWL1-15 | 2026-08-31 06:43:16 | 52.89831 | -0.68342 | 254° | 13km/h | 25372m | 5.9m/s | -50.9°C | 0.3% | 0hPa | 2.7V | 18:12:15 | 01:54:05 | 00:00:00 | |
| DM0DOS-11 | 2026-08-31 06:43:14 | 52.89830 | -0.68330 | 293° | 7km/h | 25349m | 6.9m/s | -50.9°C | 3.5% | 0hPa | 2.6V | 08:30:00 | 01:54:01 | 00:00:00 | |
| DM0DOS-11 | 2026-08-31 06:43:04 | 52.89849 | -0.68318 | 303° | 5km/h | 25292m | 6.1m/s | -50.9°C | 3.5% | 0hPa | 2.7V | 08:30:00 | 01:53:51 | 00:00:00 | |
| BIOWL1-15 | 2026-08-31 06:43:04 | 52.89848 | -0.68323 | 226° | 9km/h | 25302m | 5m/s | 0°C | 0% | 0hPa | 2.6V | 18:12:15 | 01:53:53 | 00:00:00 | |
| BIOWL1-15 | 2026-08-31 06:42:55 | 52.89859 | -0.68310 | 157° | 11km/h | 25243m | 5.6m/s | 0°C | 0% | 0hPa | 2.6V | 18:12:15 | 01:53:42 | 00:00:00 | |
| DM0DOS-11 | 2026-08-31 06:42:54 | 52.89862 | -0.68312 | 154° | 11km/h | 25237m | 5.4m/s | -50.9°C | 3.4% | 0hPa | 2.6V | 08:30:00 | 01:53:41 | 00:00:00 | |
| BIOWL9-15 | 2026-08-31 06:42:48 | 52.89868 | -0.68315 | 52° | 4km/h | 25208m | 6.3m/s | -51.2°C | 0.9% | -1.0hPa | 2.6V | 00:00:00 | 00:00:00 | 00:00:00 | |
| DJ2DS-15 | 2026-08-31 06:42:46 | 52.89866 | -0.68316 | 345° | 4km/h | 25197m | 6.0m/s | -51.2°C | 0.8% | -1.0hPa | 2.6V | 00:00:00 | 00:00:00 | 00:00:00 | |
| DM0DOS-11 | 2026-08-31 06:42:44 | 52.89865 | -0.68311 | 228° | 5km/h | 25180m | 6.1m/s | -51.3°C | 3.5% | 0hPa | 2.6V | 08:30:00 | 01:53:31 | 00:00:00 | |
| BIOWL1-15 | 2026-08-31 06:42:43 | 52.89865 | -0.68313 | 281° | 5km/h | 25185m | 5m/s | 0°C | 0% | 0hPa | 2.6V | 18:12:15 | 01:53:32 | 00:00:00 | |
| DJ2DS-15 | 2026-08-31 06:42:41 | 52.89866 | -0.68310 | 191° | 4km/h | 25173m | 6.3m/s | -51.3°C | 3.5% | 0hPa | 2.6V | 00:00:00 | 01:53:30 | 00:00:00 | |
| DM0DOS-11 | 2026-08-31 06:42:33 | 52.89866 | -0.68312 | 24° | 7km/h | 25123m | 5.6m/s | -51.2°C | 3.5% | 0hPa | 2.6V | 08:30:00 | 01:53:21 | 00:00:00 | |
| BIOWL1-15 | 2026-08-31 06:42:24 | 52.89863 | -0.68311 | 180° | 2km/h | 25077m | 5.9m/s | 0°C | 0% | 0hPa | 2.7V | 18:12:15 | 01:53:13 | 00:00:00 | |
| BIOWL1-15 | 2026-08-31 06:42:11 | 52.89862 | -0.68333 | 196° | 5km/h | 25004m | 5.8m/s | 0°C | 0% | 0hPa | 2.6V | 18:12:15 | 01:53:00 | 00:00:00 | |
| DJ2DS-15 | 2026-08-31 06:42:10 | 52.89863 | -0.68331 | 223° | 2km/h | 24994m | 5.3m/s | -51.0°C | 0.8% | -1.0hPa | 2.7V | 00:00:00 | 00:00:00 | 00:00:00 | |
| DJ2DS-15 | 2026-08-31 06:42:01 | 52.89860 | -0.68327 | 6° | 9km/h | 24950m | 5.9m/s | -51.3°C | 3.5% | 0hPa | 2.7V | 00:00:00 | 01:52:50 | 00:00:00 | |
| DJ2DS-15 | 2026-08-31 06:41:41 | 52.89858 | -0.68267 | 1° | 7km/h | 24840m | 6.3m/s | -51.7°C | 3.6% | 0hPa | 2.7V | 00:00:00 | 01:52:30 | 00:00:00 | |
| DJ2DS-15 | 2026-08-31 06:41:21 | 52.89855 | -0.68312 | 133° | 9km/h | 24730m | 4.8m/s | -51.5°C | 3.5% | 0hPa | 2.7V | 00:00:00 | 01:52:10 | 08:30:00 | |
| DJ2DS-15 | 2026-08-31 06:40:58 | 52.89873 | -0.68385 | 66° | 15km/h | 24597m | 6.7m/s | -52.0°C | 0.9% | -1.0hPa | 2.6V | 00:00:00 | 00:00:00 | 00:00:00 | |
| DM0DOS-11 | 2026-08-31 06:40:41 | 52.89850 | -0.68406 | 302° | 7km/h | 24484m | 4.9m/s | -52.5°C | 3.7% | 0hPa | 2.6V | 08:30:00 | 01:51:25 | 00:00:00 | |
| DJ2DS-15 | 2026-08-31 06:40:40 | 52.89849 | -0.68413 | 155° | 7km/h | 24505m | 5.5m/s | -52.3°C | 3.7% | 0hPa | 2.6V | 00:00:00 | 01:51:29 | 00:00:00 | |
| DM0DOS-11 | 2026-08-31 06:40:31 | 52.89847 | -0.68366 | 266° | 11km/h | 24427m | 5.8m/s | -52.4°C | 3.7% | 0hPa | 2.6V | 08:30:00 | 01:51:15 | 00:00:00 | |
| DM0DOS-11 | 2026-08-31 06:40:20 | 52.89857 | -0.68360 | 220° | 5km/h | 24364m | 6.3m/s | -52.3°C | 3.7% | 0hPa | 2.6V | 08:30:00 | 01:51:04 | 00:00:00 | |
| DJ2DS-15 | 2026-08-31 06:40:20 | 52.89849 | -0.68357 | 180° | 7km/h | 24391m | 5.4m/s | -52.3°C | 3.7% | 0hPa | 2.6V | 00:00:00 | 01:51:09 | 00:00:00 | |
| DM0DOS-11 | 2026-08-31 06:40:09 | 52.89885 | -0.68330 | 162° | 13km/h | 24302m | 6.7m/s | -52.3°C | 3.7% | 0hPa | 2.6V | 08:30:00 | 01:50:53 | 00:00:00 | |
| DM0DOS-11 | 2026-08-31 06:39:51 | 52.89894 | -0.68351 | 98° | 11km/h | 24219m | 4.5m/s | -51.9°C | 3.7% | 0hPa | 2.6V | 08:30:00 | 01:50:39 | 00:00:00 | |
| DJ2DS-15 | 2026-08-31 06:39:45 | 52.89901 | -0.68369 | 122° | 13km/h | 24190m | 6.1m/s | -51.7°C | 0.9% | -1.0hPa | 2.7V | 00:00:00 | 00:00:00 | 00:00:00 | |
| DM0DOS-11 | 2026-08-31 06:39:41 | 52.89908 | -0.68391 | 108° | 11km/h | 24161m | 5.4m/s | -51.7°C | 3.6% | 0hPa | 2.7V | 08:30:00 | 01:50:29 | 00:00:00 | |
| BIOWL1-15 | 2026-08-31 06:38:55 | 52.89861 | -0.68561 | 38° | 15km/h | 23898m | 6.3m/s | 0°C | 0% | 0hPa | 2.7V | 18:12:15 | 01:49:44 | 00:00:00 | |
| DJ2DS-15 | 2026-08-31 06:38:33 | 52.89766 | -0.68637 | 60° | 13km/h | 23702m | 5.0m/s | -51.6°C | 0.9% | -1.0hPa | 2.7V | 00:00:00 | 00:00:00 | 00:00:00 | |
| DB0UT-7 | 2026-08-31 06:38:08 | 52.89734 | -0.68639 | 54° | 9km/h | 23633m | 5.0m/s | 0°C | 0% | 0hPa | 2.7V | 00:00:00 | 01:48:57 | 00:00:00 | |
| DM0DOS-11 | 2026-08-31 06:37:47 | 52.89715 | -0.68712 | 84° | 20km/h | 23493m | 5.8m/s | -52.3°C | 3.7% | 0hPa | 2.6V | 08:30:00 | 01:48:31 | 00:00:00 | |
| DM0DOS-11 | 2026-08-31 06:37:37 | 52.89700 | -0.68757 | 51° | 9km/h | 23441m | 6.2m/s | -52.2°C | 3.7% | 0hPa | 2.6V | 08:30:00 | 01:48:21 | 00:00:00 | |
| DM0DOS-11 | 2026-08-31 06:37:27 | 52.89674 | -0.68797 | 11° | 16km/h | 23385m | 3.9m/s | -52°C | 3.7% | 0hPa | 2.6V | 08:30:00 | 01:48:11 | 00:00:00 | |
| BIOWL1-15 | 2026-08-31 06:37:23 | 52.89670 | -0.68798 | 6° | 15km/h | 23382m | 4m/s | -52°C | 0.4% | 0hPa | 2.6V | 18:12:15 | 01:48:10 | 00:00:00 | |
| DJ2DS-15 | 2026-08-31 06:37:21 | 52.89670 | -0.68798 | 6° | 15km/h | 23382m | 4.0m/s | -52.0°C | 0.9% | -1.0hPa | 2.6V | 00:00:00 | 00:00:00 | 00:00:00 | |
| DM0DOS-11 | 2026-08-31 06:37:16 | 52.89648 | -0.68803 | 1° | 15km/h | 23333m | 7.1m/s | -52°C | 3.7% | 0hPa | 2.6V | 08:30:00 | 01:48:01 | 00:00:00 | |
| BIOWL1-15 | 2026-08-31 06:37:13 | 52.89651 | -0.68803 | 358° | 11km/h | 23339m | 5.6m/s | -52°C | 0.4% | 0hPa | 2.7V | 18:12:15 | 01:48:02 | 00:00:00 | |
| DB0UT-7 | 2026-08-31 06:37:08 | 52.89632 | -0.68800 | 330° | 7km/h | 23310m | 4.7m/s | -52.0°C | 3.7% | 0hPa | 2.6V | 00:00:00 | 01:47:57 | 00:00:00 | |
| DM0DOS-11 | 2026-08-31 06:37:06 | 52.89622 | -0.68791 | 300° | 7km/h | 23278m | 6m/s | -52.1°C | 3.7% | 0hPa | 2.6V | 08:30:00 | 01:47:51 | 00:00:00 | |
| BIOWL1-15 | 2026-08-31 06:37:02 | 52.89620 | -0.68786 | 319° | 7km/h | 23268m | 6.3m/s | -52°C | 0.4% | 0hPa | 2.6V | 18:12:15 | 01:47:49 | 00:00:00 | |
| DM0DOS-11 | 2026-08-31 06:36:57 | 52.89609 | -0.68767 | 330° | 11km/h | 23224m | 4m/s | -51.9°C | 3.6% | 0hPa | 2.7V | 08:30:00 | 01:47:41 | 00:00:00 | |
| BIOWL1-15 | 2026-08-31 06:36:51 | 52.89607 | -0.68764 | 319° | 13km/h | 23219m | 5.7m/s | -51.9°C | 0.5% | 0hPa | 2.6V | 18:12:15 | 01:47:40 | 00:00:00 | |
| BIOWL1-15 | 2026-08-31 06:36:40 | 52.89612 | -0.68742 | 227° | 7km/h | 23148m | 5.4m/s | -51.7°C | 0.4% | 0hPa | 2.7V | 18:12:15 | 01:47:27 | 00:00:00 | |
| DM0DOS-11 | 2026-08-31 06:36:37 | 52.89615 | -0.68736 | 216° | 11km/h | 23138m | 6m/s | -51.8°C | 3.6% | 0hPa | 2.7V | 08:30:00 | 01:47:25 | 00:00:00 | |
| BIOWL1-15 | 2026-08-31 06:36:30 | 52.89620 | -0.68714 | 318° | 11km/h | 23101m | 5.9m/s | -51.6°C | 0.4% | 0hPa | 2.6V | 18:12:15 | 01:47:18 | 00:00:00 | |
| DM0DOS-11 | 2026-08-31 06:36:27 | 52.89613 | -0.68693 | 265° | 13km/h | 23068m | 5.9m/s | -51.5°C | 3.6% | 0hPa | 2.7V | 08:30:00 | 01:47:12 | 00:00:00 | |
| BIOWL1-15 | 2026-08-31 06:36:20 | 52.89615 | -0.68679 | 265° | 11km/h | 23053m | 4.6m/s | -51.5°C | 0.4% | 0hPa | 2.6V | 18:12:15 | 01:47:09 | 00:00:00 | |
| DM0DOS-11 | 2026-08-31 06:36:17 | 52.89622 | -0.68657 | 175° | 13km/h | 23015m | 6.1m/s | -51.5°C | 3.6% | 0hPa | 2.6V | 08:30:00 | 01:47:02 | 00:00:00 | |
| BIOWL1-15 | 2026-08-31 06:36:10 | 52.89630 | -0.68656 | 179° | 9km/h | 22999m | 6.3m/s | -51.5°C | 0.4% | 0hPa | 2.7V | 18:12:15 | 01:46:59 | 00:00:00 | |
| DM0DOS-11 | 2026-08-31 06:36:08 | 52.89639 | -0.68640 | 219° | 5km/h | 22960m | 4.1m/s | -51.4°C | 3.5% | 0hPa | 2.6V | 08:30:00 | 01:46:52 | 00:00:00 | |
| BIOWL1-15 | 2026-08-31 06:35:59 | 52.89646 | -0.68627 | 177° | 7km/h | 22928m | 5.9m/s | -51.5°C | 0.4% | 0hPa | 2.6V | 18:12:15 | 01:46:46 | 00:00:00 | |
| DM0DOS-11 | 2026-08-31 06:35:58 | 52.89653 | -0.68626 | 214° | 4km/h | 22905m | 4.7m/s | -51.4°C | 3.5% | 0hPa | 2.6V | 08:30:00 | 01:46:42 | 00:00:00 | |
| DM0DOS-11 | 2026-08-31 06:35:48 | 52.89659 | -0.68643 | 101° | 9km/h | 22848m | 6.5m/s | -51.5°C | 3.5% | 0hPa | 2.6V | 08:30:00 | 01:46:32 | 00:00:00 | |
| BIOWL1-15 | 2026-08-31 06:35:47 | 52.89657 | -0.68630 | 105° | 4km/h | 22871m | 4.7m/s | -51.4°C | 0.3% | 0hPa | 2.6V | 18:12:15 | 01:46:36 | 00:00:00 | |
| BIOWL1-15 | 2026-08-31 06:35:39 | 52.89657 | -0.68666 | 75° | 11km/h | 22816m | 6.1m/s | -51.7°C | 0.4% | 0hPa | 2.6V | 18:12:15 | 01:46:26 | 00:00:00 | |
| DM0DOS-11 | 2026-08-31 06:35:38 | 52.89653 | -0.68679 | 69° | 11km/h | 22792m | 6.1m/s | -51.7°C | 3.5% | 0hPa | 2.7V | 08:30:00 | 01:46:22 | 00:00:00 | |
| DB0UT-7 | 2026-08-31 06:35:38 | 52.89658 | -0.68661 | 82° | 15km/h | 22821m | 4.2m/s | 0°C | 0% | 0hPa | 2.6V | 00:00:00 | 00:00:00 | 00:00:00 | |
| DJ2DS-15 | 2026-08-31 06:35:33 | 52.89653 | -0.68679 | 69° | 11km/h | 22792m | 6.1m/s | -51.7°C | 0.9% | -1.0hPa | 2.6V | 00:00:00 | 00:00:00 | 00:00:00 | |
| DM0DOS-11 | 2026-08-31 06:35:28 | 52.89635 | -0.68734 | 36° | 16km/h | 22738m | 5m/s | -51.7°C | 3.6% | 0hPa | 2.6V | 08:30:00 | 01:46:12 | 00:00:00 | |
| BIOWL1-15 | 2026-08-31 06:35:26 | 52.89638 | -0.68729 | 50° | 15km/h | 22743m | 5.9m/s | -51.7°C | 0.3% | 0hPa | 2.7V | 18:12:15 | 01:46:13 | 00:00:00 | |
| DM0DOS-11 | 2026-08-31 06:35:18 | 52.89594 | -0.68778 | 44° | 15km/h | 22681m | 7m/s | -51.9°C | 3.6% | 0hPa | 2.7V | 08:30:00 | 01:46:02 | 00:00:00 | |
| BIOWL1-15 | 2026-08-31 06:35:16 | 52.89596 | -0.68773 | 46° | 16km/h | 22687m | 5.1m/s | -51.8°C | 0.4% | 0hPa | 2.7V | 18:12:15 | 01:46:03 | 00:00:00 | |
| DM0DOS-11 | 2026-08-31 06:35:08 | 52.89551 | -0.68787 | 3° | 27km/h | 22623m | 4.9m/s | -52°C | 3.6% | 0hPa | 2.7V | 08:30:00 | 01:45:52 | 00:00:00 | |
| BIOWL1-15 | 2026-08-31 06:35:06 | 52.89571 | -0.68790 | 350° | 24km/h | 22640m | 5.9m/s | -52°C | 0.5% | 0hPa | 2.6V | 18:12:15 | 01:45:55 | 00:00:00 | |
| DM0DOS-11 | 2026-08-31 06:34:58 | 52.89516 | -0.68796 | 2° | 9km/h | 22567m | 5.7m/s | -52.3°C | 3.7% | 0hPa | 2.7V | 08:30:00 | 01:45:42 | 00:00:00 | |
| BIOWL1-15 | 2026-08-31 06:34:55 | 52.89518 | -0.68796 | 360° | 5km/h | 22572m | 4.4m/s | -52.2°C | 0.4% | 0hPa | 2.7V | 18:12:15 | 01:45:43 | 00:00:00 | |
| DM0DOS-11 | 2026-08-31 06:34:48 | 52.89466 | -0.68777 | 332° | 15km/h | 22509m | 6.2m/s | -52.3°C | 3.7% | 0hPa | 2.7V | 08:30:00 | 01:45:32 | 00:00:00 | |
| BIOWL1-15 | 2026-08-31 06:34:44 | 52.89470 | -0.68780 | 343° | 20km/h | 22515m | 5.8m/s | -52.3°C | 0.4% | 0hPa | 2.6V | 18:12:15 | 01:45:33 | 00:00:00 | |
| BIOWL1-15 | 2026-08-31 06:34:36 | 52.89438 | -0.68764 | 335° | 26km/h | 22459m | 7m/s | 0°C | 0% | 0hPa | 2.7V | 18:12:15 | 01:45:23 | 00:00:00 | |
| DM0DOS-11 | 2026-08-31 06:34:35 | 52.89413 | -0.68742 | 323° | 26km/h | 22435m | 5.1m/s | -52.2°C | 3.8% | 0hPa | 2.6V | 08:30:00 | 01:45:19 | 00:00:00 | |
| DJ2DS-15 | 2026-08-31 06:34:27 | 52.89398 | -0.68729 | 346° | 20km/h | 22417m | 4.6m/s | -52.1°C | 3.8% | 0hPa | 2.6V | 00:00:00 | 01:45:16 | 00:00:00 | |
| DM0DOS-11 | 2026-08-31 06:34:25 | 52.89364 | -0.68692 | 322° | 35km/h | 22376m | 5.5m/s | -51.9°C | 3.7% | 0hPa | 2.6V | 08:30:00 | 01:45:09 | 00:00:00 | |
| DJ2DS-15 | 2026-08-31 06:34:21 | 52.89371 | -0.68701 | 325° | 31km/h | 22382m | 5.5m/s | -52.0°C | 1.0% | -1.0hPa | 2.7V | 00:00:00 | 00:00:00 | 00:00:00 | |
| DJ2DS-15 | 2026-08-31 06:34:07 | 52.89310 | -0.68627 | 335° | 15km/h | 22301m | 6.9m/s | -51.4°C | 3.5% | 0hPa | 2.7V | 00:00:00 | 01:44:56 | 00:00:00 | |
| DM0DOS-11 | 2026-08-31 06:33:58 | 52.89262 | -0.68577 | 350° | 9km/h | 22217m | 5.1m/s | -51.3°C | 3.5% | 0hPa | 2.7V | 08:30:00 | 01:44:42 | 00:00:00 | |
| DM0DOS-11 | 2026-08-31 06:33:48 | 52.89245 | -0.68562 | 29° | 7km/h | 22159m | 5.4m/s | -51.5°C | 3.5% | 0hPa | 2.6V | 08:30:00 | 01:44:32 | 00:00:00 | |
| DJ2DS-15 | 2026-08-31 06:33:47 | 52.89251 | -0.68569 | 287° | 11km/h | 22181m | 5.2m/s | -51.4°C | 3.4% | 0hPa | 2.7V | 00:00:00 | 01:44:36 | 00:00:00 | |
| DJ2DS-15 | 2026-08-31 06:33:45 | 52.89247 | -0.68561 | 359° | 7km/h | 22164m | 5.1m/s | -51.5°C | 0.9% | -1.0hPa | 2.7V | 00:00:00 | 00:00:00 | 00:00:00 | |
| DM0DOS-11 | 2026-08-31 06:33:37 | 52.89240 | -0.68602 | 62° | 11km/h | 22096m | 4.5m/s | -51.7°C | 3.5% | 0hPa | 2.7V | 08:30:00 | 01:44:21 | 00:00:00 | |
| DM0DOS-11 | 2026-08-31 06:33:27 | 52.89224 | -0.68633 | 6° | 4km/h | 22040m | 5.7m/s | -51.9°C | 3.6% | 0hPa | 2.7V | 08:30:00 | 01:44:11 | 00:00:00 | |
| DJ2DS-15 | 2026-08-31 06:33:25 | 52.89228 | -0.68631 | 30° | 9km/h | 22056m | 6.1m/s | 0°C | 0% | 0hPa | 2.6V | 00:00:00 | 01:44:14 | 00:00:00 | |
| DM0DOS-11 | 2026-08-31 06:33:13 | 52.89222 | -0.68657 | 85° | 13km/h | 21986m | 6.6m/s | -51.9°C | 3.6% | 0hPa | 2.6V | 08:30:00 | 01:44:01 | 00:00:00 | |
| DJ2DS-15 | 2026-08-31 06:33:05 | 52.89224 | -0.68693 | 113° | 16km/h | 21947m | 5.2m/s | 0°C | 0% | 0hPa | 2.7V | 00:00:00 | 01:43:54 | 00:00:00 | |
| DM0DOS-11 | 2026-08-31 06:33:03 | 52.89230 | -0.68720 | 115° | 16km/h | 21920m | 5.6m/s | -52°C | 3.6% | 0hPa | 2.7V | 08:30:00 | 01:43:49 | 00:00:00 | |
| DJ2DS-15 | 2026-08-31 06:32:45 | 52.89235 | -0.68830 | 79° | 15km/h | 21835m | 5.5m/s | 0°C | 0% | 0hPa | 2.6V | 00:00:00 | 01:43:34 | 00:00:00 | |
| DJ2DS-15 | 2026-08-31 06:31:57 | 52.89096 | -0.69074 | 39° | 16km/h | 21576m | 4.2m/s | -52.2°C | 1.0% | -1.0hPa | 2.6V | 00:00:00 | 00:00:00 | 00:00:00 | |
| DJ2DS-15 | 2026-08-31 06:31:21 | 52.88902 | -0.69233 | 0° | 24km/h | 21395m | 4.6m/s | -52.5°C | 1.0% | -1.0hPa | 2.6V | 00:00:00 | 00:00:00 | 00:00:00 | |
| DJ2DS-15 | 2026-08-31 06:30:45 | 52.88721 | -0.69191 | 313° | 13km/h | 21219m | 5.3m/s | -52.6°C | 1.0% | -1.0hPa | 2.6V | 00:00:00 | 00:00:00 | 00:00:00 | |
| DJ2DS-15 | 2026-08-31 06:30:33 | 52.88695 | -0.69158 | 320° | 11km/h | 21165m | 4.4m/s | 0°C | 0% | 0hPa | 2.6V | 00:00:00 | 01:41:22 | 00:00:00 | |
| DJ2DS-15 | 2026-08-31 06:30:11 | 52.88674 | -0.69192 | 85° | 5km/h | 21053m | 5.2m/s | 0°C | 0% | 0hPa | 2.6V | 00:00:00 | 01:41:00 | 00:00:00 | |
| DJ2DS-15 | 2026-08-31 06:30:09 | 52.88672 | -0.69197 | 48° | 5km/h | 21037m | 5.2m/s | 0°C | -1.0% | -1.0hPa | 2.6V | 00:00:00 | 00:00:00 | 00:00:00 | |
| DM0DOS-11 | 2026-08-31 06:27:05 | 52.88133 | -0.69990 | 98° | 24km/h | 20049m | 4.8m/s | -50.3°C | 3.4% | 0hPa | 2.6V | 08:30:00 | 01:37:50 | 00:00:00 | |
| DM0DOS-11 | 2026-08-31 06:26:55 | 52.88112 | -0.70083 | 70° | 24km/h | 19998m | 5.6m/s | -50.3°C | 3.4% | 0hPa | 2.6V | 08:30:00 | 01:37:40 | 00:00:00 | |
| DM0DOS-11 | 2026-08-31 06:26:44 | 52.88091 | -0.70184 | 55° | 27km/h | 19937m | 4.2m/s | -50.4°C | 3.4% | 0hPa | 2.6V | 08:30:00 | 01:37:28 | 00:00:00 | |
| DM0DOS-11 | 2026-08-31 06:26:34 | 52.88068 | -0.70251 | 43° | 20km/h | 19886m | 5.6m/s | -50.3°C | 3.4% | 0hPa | 2.6V | 08:30:00 | 01:37:18 | 00:00:00 | |
| DM0DOS-11 | 2026-08-31 06:26:24 | 52.88030 | -0.70306 | 47° | 16km/h | 19836m | 6m/s | -50.4°C | 3.4% | 0hPa | 2.7V | 08:30:00 | 01:37:08 | 00:00:00 | |
| DM0DOS-11 | 2026-08-31 06:26:14 | 52.87999 | -0.70342 | 34° | 18km/h | 19785m | 5.6m/s | -50.1°C | 3.4% | 0hPa | 2.6V | 08:30:00 | 01:36:58 | 00:00:00 | |
| DM0DOS-11 | 2026-08-31 06:26:04 | 52.87970 | -0.70378 | 29° | 15km/h | 19735m | 4.6m/s | -50.1°C | 3.4% | 0hPa | 2.7V | 08:30:00 | 01:36:48 | 00:00:00 | |
| DM0DOS-11 | 2026-08-31 06:25:54 | 52.87953 | -0.70436 | 80° | 11km/h | 19685m | 5m/s | -49.9°C | 3.4% | 0hPa | 2.6V | 08:30:00 | 01:36:38 | 00:00:00 | |
| DM0DOS-11 | 2026-08-31 06:25:44 | 52.87933 | -0.70499 | 76° | 20km/h | 19636m | 5.1m/s | -49.6°C | 3.3% | 0hPa | 2.6V | 08:30:00 | 01:36:28 | 00:00:00 | |
| DM0DOS-11 | 2026-08-31 06:25:34 | 52.87918 | -0.70573 | 69° | 26km/h | 19585m | 6.2m/s | -49.7°C | 3.3% | 0hPa | 2.6V | 08:30:00 | 01:36:18 | 00:00:00 | |
| DM0DOS-11 | 2026-08-31 06:25:24 | 52.87902 | -0.70663 | 43° | 13km/h | 19534m | 3.5m/s | -49.6°C | 3.3% | 0hPa | 2.7V | 08:30:00 | 01:36:08 | 00:00:00 | |
| DM0DOS-11 | 2026-08-31 06:25:14 | 52.87884 | -0.70757 | 63° | 27km/h | 19483m | 5.5m/s | -49.3°C | 3.3% | 0hPa | 2.7V | 08:30:00 | 01:35:58 | 00:00:00 | |
| DM0DOS-11 | 2026-08-31 06:25:04 | 52.87868 | -0.70821 | 82° | 24km/h | 19434m | 5.6m/s | -49°C | 3.2% | 0hPa | 2.6V | 08:30:00 | 01:35:48 | 00:00:00 | |
| DM0DOS-11 | 2026-08-31 06:24:54 | 52.87844 | -0.70886 | 54° | 7km/h | 19384m | 5.3m/s | -49.2°C | 3.2% | 0hPa | 2.7V | 08:30:00 | 01:35:38 | 00:00:00 | |
| DM0DOS-11 | 2026-08-31 06:24:44 | 52.87837 | -0.70926 | 75° | 15km/h | 19334m | 5.6m/s | -49°C | 3.2% | 0hPa | 2.7V | 08:30:00 | 01:35:28 | 00:00:00 | |
| DM0DOS-11 | 2026-08-31 06:24:34 | 52.87822 | -0.70986 | 75° | 16km/h | 19287m | 4.8m/s | -48.9°C | 3.1% | 0hPa | 2.6V | 08:30:00 | 01:35:18 | 00:00:00 | |
| DM0DOS-11 | 2026-08-31 06:24:24 | 52.87818 | -0.71055 | 85° | 15km/h | 19239m | 5.7m/s | -49.7°C | 3.3% | 0hPa | 2.7V | 08:30:00 | 01:35:08 | 00:00:00 | |
| DM0DOS-11 | 2026-08-31 06:24:14 | 52.87803 | -0.71155 | 81° | 35km/h | 19190m | 4.1m/s | -50.1°C | 3.4% | 0hPa | 2.7V | 08:30:00 | 01:34:58 | 00:00:00 | |
| DM0DOS-11 | 2026-08-31 06:24:04 | 52.87791 | -0.71280 | 85° | 27km/h | 19141m | 4.6m/s | -50°C | 3.4% | 0hPa | 2.6V | 08:30:00 | 01:34:48 | 00:00:00 | |
| DM0DOS-11 | 2026-08-31 06:23:56 | 52.87779 | -0.71413 | 78° | 31km/h | 19094m | 4.2m/s | -50°C | 3.4% | 0hPa | 2.6V | 08:30:00 | 01:34:38 | 00:00:00 | |
| DM0DOS-11 | 2026-08-31 06:23:44 | 52.87758 | -0.71563 | 78° | 40km/h | 19043m | 5.1m/s | -50°C | 0% | 0hPa | 2.7V | 08:30:00 | 01:34:28 | 00:00:00 | |
| DM0DOS-11 | 2026-08-31 06:23:34 | 52.87738 | -0.71713 | 75° | 35km/h | 18993m | 5.8m/s | 0°C | 0% | 0hPa | 2.6V | 00:00:00 | 01:34:18 | 00:00:00 | |
| DM0DOS-11 | 2026-08-31 06:23:24 | 52.87712 | -0.71863 | 80° | 40km/h | 18944m | 3.8m/s | 0°C | 0% | 0hPa | 2.6V | 00:00:00 | 01:34:08 | 00:00:00 | |
| DM0DOS-11 | 2026-08-31 06:23:14 | 52.87672 | -0.72028 | 65° | 40km/h | 18892m | 4.8m/s | 0°C | 0% | 0hPa | 2.7V | 00:00:00 | 01:33:58 | 00:00:00 | |
| DM0DOS-11 | 2026-08-31 06:23:04 | 52.87632 | -0.72196 | 65° | 46km/h | 18843m | 4.5m/s | 0°C | 0% | 0hPa | 2.7V | 00:00:00 | 01:33:48 | 00:00:00 | |
| DM0DOS-11 | 2026-08-31 06:22:53 | 52.87581 | -0.72354 | 63° | 40km/h | 18788m | 4.8m/s | 0°C | 0% | 0hPa | 2.7V | 00:00:00 | 01:33:37 | 00:00:00 | |
| DM0DOS-11 | 2026-08-31 06:22:43 | 52.87537 | -0.72498 | 56° | 37km/h | 18738m | 3.5m/s | 0°C | 0% | 0hPa | 2.6V | 00:00:00 | 01:33:27 | 00:00:00 |